Wetterdaten: Donnerstag, 08.04.2021
Datum Zeit Temp. Aussen Temp. o. S. Temp +5cm Feuchte Auss Luftdruck Regen Sonnenschein Regendauer Solar Windben Empfang
08.04.2021 00:00 1,9 C 1,1 C 0,6 C 91 % 1022,5 hPa 0,0 l/m 0 min 0 min 0 W/m 16,1 km/h (3 Bft) 100,00 %
08.04.2021 00:02 1,9 C 1,1 C 0,6 C 92 % 1022,5 hPa 0,0 l/m 0 min 0 min 0 W/m 12,9 km/h (3 Bft) 97,73 %
08.04.2021 00:04 1,9 C 1,1 C 0,6 C 92 % 1022,5 hPa 0,0 l/m 0 min 0 min 0 W/m 9,7 km/h (2 Bft) 97,87 %
08.04.2021 00:08 1,9 C 1,1 C 0,6 C 92 % 1022,5 hPa 0,0 l/m 0 min 0 min 0 W/m 12,9 km/h (3 Bft) 96,77 %
08.04.2021 00:10 1,9 C 1,1 C 0,6 C 92 % 1022,5 hPa 0,0 l/m 0 min 0 min 0 W/m 12,9 km/h (3 Bft) 97,87 %
08.04.2021 00:12 1,9 C 1,1 C 0,6 C 92 % 1022,5 hPa 0,0 l/m 0 min 0 min 0 W/m 6,4 km/h (2 Bft) 97,87 %
08.04.2021 00:14 1,8 C 1,1 C 0,6 C 92 % 1022,6 hPa 0,0 l/m 0 min 0 min 0 W/m 12,9 km/h (3 Bft) 95,74 %
08.04.2021 00:16 1,8 C 1,1 C 0,6 C 92 % 1022,6 hPa 0,0 l/m 0 min 0 min 0 W/m 6,4 km/h (2 Bft) 91,49 %
08.04.2021 00:18 1,8 C 1,1 C 0,6 C 92 % 1022,6 hPa 0,0 l/m 0 min 0 min 0 W/m 6,4 km/h (2 Bft) 95,65 %
08.04.2021 00:20 1,8 C 1,1 C 0,6 C 92 % 1022,6 hPa 0,0 l/m 0 min 0 min 0 W/m 6,4 km/h (2 Bft) 95,74 %
08.04.2021 00:22 1,8 C 1,1 C 0,6 C 92 % 1022,7 hPa 0,0 l/m 0 min 0 min 0 W/m 6,4 km/h (2 Bft) 95,65 %
08.04.2021 00:24 1,7 C 1,1 C 0,6 C 92 % 1022,7 hPa 0,0 l/m 0 min 0 min 0 W/m 12,9 km/h (3 Bft) 97,87 %
08.04.2021 00:26 1,7 C 1,1 C 0,6 C 92 % 1022,7 hPa 0,0 l/m 0 min 0 min 0 W/m 9,7 km/h (2 Bft) 93,62 %
08.04.2021 00:28 1,7 C 1,1 C 0,6 C 92 % 1022,7 hPa 0,0 l/m 0 min 0 min 0 W/m 12,9 km/h (3 Bft) 95,74 %
08.04.2021 00:30 1,6 C 1,1 C 0,6 C 92 % 1022,7 hPa 0,0 l/m 0 min 0 min 0 W/m 12,9 km/h (3 Bft) 95,65 %
08.04.2021 00:32 1,6 C 1,1 C 0,6 C 92 % 1022,7 hPa 0,0 l/m 0 min 0 min 0 W/m 6,4 km/h (2 Bft) 95,83 %
08.04.2021 00:34 1,6 C 1,1 C 0,6 C 92 % 1022,7 hPa 0,0 l/m 0 min 0 min 0 W/m 6,4 km/h (2 Bft) 93,62 %
08.04.2021 00:36 1,6 C 1,1 C 0,6 C 92 % 1022,8 hPa 0,0 l/m 0 min 0 min 0 W/m 9,7 km/h (2 Bft) 95,74 %
08.04.2021 00:38 1,6 C 1,1 C 0,6 C 92 % 1022,8 hPa 0,0 l/m 0 min 0 min 0 W/m 6,4 km/h (2 Bft) 95,74 %
08.04.2021 00:40 1,5 C 0,6 C 0,0 C 92 % 1022,8 hPa 0,0 l/m 0 min 0 min 0 W/m 12,9 km/h (3 Bft) 95,74 %
08.04.2021 00:42 1,5 C 1,1 C 0,0 C 92 % 1022,9 hPa 0,0 l/m 0 min 0 min 0 W/m 6,4 km/h (2 Bft) 93,48 %
08.04.2021 00:44 1,5 C 0,6 C 0,0 C 92 % 1022,9 hPa 0,0 l/m 0 min 0 min 0 W/m 3,2 km/h (1 Bft) 95,74 %
08.04.2021 00:46 1,5 C 0,6 C 0,0 C 92 % 1022,9 hPa 0,0 l/m 0 min 0 min 0 W/m 6,4 km/h (2 Bft) 95,74 %
08.04.2021 00:48 1,5 C 0,6 C 0,0 C 92 % 1022,9 hPa 0,0 l/m 0 min 0 min 0 W/m 6,4 km/h (2 Bft) 93,62 %
08.04.2021 00:50 1,5 C 0,6 C 0,0 C 92 % 1022,9 hPa 0,0 l/m 0 min 0 min 0 W/m 6,4 km/h (2 Bft) 93,62 %
08.04.2021 00:52 1,4 C 0,6 C 0,0 C 92 % 1022,9 hPa 0,0 l/m 0 min 0 min 0 W/m 6,4 km/h (2 Bft) 91,49 %
08.04.2021 00:54 1,4 C 0,6 C 0,0 C 92 % 1023,0 hPa 0,0 l/m 0 min 0 min 0 W/m 12,9 km/h (3 Bft) 95,65 %
08.04.2021 00:56 1,4 C 0,6 C 0,0 C 92 % 1023,0 hPa 0,0 l/m 0 min 0 min 0 W/m 9,7 km/h (2 Bft) 95,74 %
08.04.2021 00:58 1,4 C 0,6 C 0,0 C 92 % 1023,0 hPa 0,0 l/m 0 min 0 min 0 W/m 6,4 km/h (2 Bft) 97,87 %
08.04.2021 01:00 1,4 C 0,6 C 0,0 C 93 % 1023,0 hPa 0,0 l/m 0 min 0 min 0 W/m 12,9 km/h (3 Bft) 97,87 %
08.04.2021 01:02 1,4 C 0,6 C 0,0 C 93 % 1023,1 hPa 0,0 l/m 0 min 0 min 0 W/m 6,4 km/h (2 Bft) 100,00 %
08.04.2021 01:04 1,4 C 0,6 C 0,0 C 93 % 1023,1 hPa 0,0 l/m 0 min 0 min 0 W/m 6,4 km/h (2 Bft) 100,00 %
08.04.2021 01:06 1,4 C 0,6 C 0,0 C 93 % 1023,1 hPa 0,0 l/m 0 min 0 min 0 W/m 3,2 km/h (1 Bft) 100,00 %
08.04.2021 01:08 1,4 C 0,6 C 0,0 C 93 % 1023,0 hPa 0,0 l/m 0 min 0 min 0 W/m 12,9 km/h (3 Bft) 100,00 %
08.04.2021 01:10 1,4 C 1,1 C 0,0 C 93 % 1023,1 hPa 0,0 l/m 0 min 0 min 0 W/m 9,7 km/h (2 Bft) 100,00 %
08.04.2021 01:12 1,4 C 1,1 C 0,0 C 93 % 1023,0 hPa 0,0 l/m 0 min 0 min 0 W/m 12,9 km/h (3 Bft) 100,00 %
08.04.2021 01:14 1,4 C 1,1 C 0,0 C 93 % 1023,1 hPa 0,0 l/m 0 min 0 min 0 W/m 6,4 km/h (2 Bft) 100,00 %
08.04.2021 01:16 1,4 C 1,1 C 0,0 C 93 % 1023,0 hPa 0,0 l/m 0 min 0 min 0 W/m 6,4 km/h (2 Bft) 100,00 %
08.04.2021 01:18 1,4 C 1,1 C 0,0 C 93 % 1023,1 hPa 0,0 l/m 0 min 0 min 0 W/m 12,9 km/h (3 Bft) 100,00 %
08.04.2021 01:20 1,4 C 1,1 C 0,0 C 93 % 1023,1 hPa 0,0 l/m 0 min 0 min 0 W/m 12,9 km/h (3 Bft) 100,00 %
08.04.2021 01:22 1,4 C 1,1 C 0,0 C 93 % 1023,1 hPa 0,0 l/m 0 min 0 min 0 W/m 6,4 km/h (2 Bft) 100,00 %
08.04.2021 01:24 1,4 C 1,1 C 0,0 C 93 % 1023,1 hPa 0,0 l/m 0 min 0 min 0 W/m 9,7 km/h (2 Bft) 97,87 %
08.04.2021 01:26 1,4 C 1,1 C 0,0 C 93 % 1023,1 hPa 0,0 l/m 0 min 0 min 0 W/m 6,4 km/h (2 Bft) 100,00 %
08.04.2021 01:28 1,4 C 1,1 C 0,0 C 93 % 1023,1 hPa 0,0 l/m 0 min 0 min 0 W/m 6,4 km/h (2 Bft) 100,00 %
08.04.2021 01:30 1,4 C 1,1 C 0,0 C 93 % 1023,2 hPa 0,0 l/m 0 min 0 min 0 W/m 6,4 km/h (2 Bft) 100,00 %
08.04.2021 01:32 1,4 C 1,1 C 0,6 C 93 % 1023,2 hPa 0,0 l/m 0 min 0 min 0 W/m 6,4 km/h (2 Bft) 100,00 %
08.04.2021 01:34 1,4 C 1,1 C 0,6 C 93 % 1023,2 hPa 0,0 l/m 0 min 0 min 0 W/m 16,1 km/h (3 Bft) 100,00 %
08.04.2021 01:36 1,4 C 1,1 C 0,6 C 93 % 1023,3 hPa 0,0 l/m 0 min 0 min 0 W/m 6,4 km/h (2 Bft) 100,00 %
08.04.2021 01:38 1,4 C 1,1 C 0,6 C 93 % 1023,2 hPa 0,0 l/m 0 min 0 min 0 W/m 9,7 km/h (2 Bft) 100,00 %
08.04.2021 01:40 1,4 C 1,1 C 0,6 C 93 % 1023,2 hPa 0,0 l/m 0 min 0 min 0 W/m 6,4 km/h (2 Bft) 100,00 %
08.04.2021 01:42 1,4 C 1,1 C 0,6 C 93 % 1023,2 hPa 0,0 l/m 0 min 0 min 0 W/m 9,7 km/h (2 Bft) 100,00 %
08.04.2021 01:44 1,4 C 1,1 C 0,6 C 93 % 1023,2 hPa 0,0 l/m 0 min 0 min 0 W/m 9,7 km/h (2 Bft) 100,00 %
08.04.2021 01:46 1,4 C 1,1 C 0,6 C 93 % 1023,2 hPa 0,0 l/m 0 min 0 min 0 W/m 6,4 km/h (2 Bft) 100,00 %
08.04.2021 01:48 1,4 C 1,1 C 0,6 C 93 % 1023,2 hPa 0,0 l/m 0 min 0 min 0 W/m 12,9 km/h (3 Bft) 100,00 %
08.04.2021 01:50 1,4 C 1,1 C 0,6 C 93 % 1023,2 hPa 0,0 l/m 0 min 0 min 0 W/m 6,4 km/h (2 Bft) 100,00 %
08.04.2021 01:52 1,4 C 1,1 C 0,6 C 93 % 1023,2 hPa 0,0 l/m 0 min 0 min 0 W/m 6,4 km/h (2 Bft) 97,87 %
08.04.2021 01:54 1,4 C 1,1 C 0,6 C 93 % 1023,2 hPa 0,0 l/m 0 min 0 min 0 W/m 6,4 km/h (2 Bft) 100,00 %
08.04.2021 01:56 1,5 C 1,1 C 0,6 C 93 % 1023,2 hPa 0,0 l/m 0 min 0 min 0 W/m 6,4 km/h (2 Bft) 100,00 %
08.04.2021 01:58 1,5 C 1,1 C 0,6 C 93 % 1023,2 hPa 0,0 l/m 0 min 0 min 0 W/m 6,4 km/h (2 Bft) 100,00 %
08.04.2021 02:00 1,4 C 1,1 C 0,6 C 93 % 1023,2 hPa 0,0 l/m 0 min 0 min 0 W/m 6,4 km/h (2 Bft) 100,00 %
08.04.2021 02:02 1,4 C 1,1 C 0,6 C 93 % 1023,2 hPa 0,0 l/m 0 min 0 min 0 W/m 6,4 km/h (2 Bft) 97,87 %
08.04.2021 02:04 1,4 C 1,1 C 0,6 C 93 % 1023,2 hPa 0,0 l/m 0 min 0 min 0 W/m 9,7 km/h (2 Bft) 100,00 %
08.04.2021 02:06 1,5 C 1,1 C 0,6 C 93 % 1023,1 hPa 0,0 l/m 0 min 0 min 0 W/m 3,2 km/h (1 Bft) 100,00 %
08.04.2021 02:08 1,4 C 1,1 C 0,6 C 93 % 1023,2 hPa 0,0 l/m 0 min 0 min 0 W/m 9,7 km/h (2 Bft) 57,45 %
08.04.2021 02:10 1,4 C 0,6 C 0,6 C 93 % 1023,2 hPa 0,0 l/m 0 min 0 min 0 W/m 9,7 km/h (2 Bft) 100,00 %
08.04.2021 02:12 1,4 C 0,6 C 0,0 C 93 % 1023,2 hPa 0,0 l/m 0 min 0 min 0 W/m 3,2 km/h (1 Bft) 100,00 %
08.04.2021 02:14 1,4 C 0,6 C 0,0 C 93 % 1023,2 hPa 0,0 l/m 0 min 0 min 0 W/m 3,2 km/h (1 Bft) 100,00 %
08.04.2021 02:16 1,4 C 0,6 C 0,0 C 93 % 1023,3 hPa 0,0 l/m 0 min 0 min 0 W/m 12,9 km/h (3 Bft) 100,00 %
08.04.2021 02:18 1,4 C 0,6 C 0,0 C 93 % 1023,3 hPa 0,0 l/m 0 min 0 min 0 W/m 9,7 km/h (2 Bft) 100,00 %
08.04.2021 02:20 1,4 C 0,6 C 0,0 C 93 % 1023,3 hPa 0,0 l/m 0 min 0 min 0 W/m 3,2 km/h (1 Bft) 95,74 %
08.04.2021 02:22 1,4 C 0,6 C 0,0 C 93 % 1023,3 hPa 0,0 l/m 0 min 0 min 0 W/m 6,4 km/h (2 Bft) 97,87 %
08.04.2021 02:24 1,3 C 0,6 C 0,0 C 93 % 1023,3 hPa 0,0 l/m 0 min 0 min 0 W/m 6,4 km/h (2 Bft) 97,87 %
08.04.2021 02:26 1,3 C 0,6 C 0,0 C 93 % 1023,3 hPa 0,0 l/m 0 min 0 min 0 W/m 12,9 km/h (3 Bft) 100,00 %
08.04.2021 02:28 1,3 C 0,6 C 0,0 C 93 % 1023,3 hPa 0,0 l/m 0 min 0 min 0 W/m 6,4 km/h (2 Bft) 100,00 %
08.04.2021 02:30 1,3 C 0,6 C 0,0 C 93 % 1023,3 hPa 0,0 l/m 0 min 0 min 0 W/m 6,4 km/h (2 Bft) 97,83 %
08.04.2021 02:32 1,3 C 0,6 C 0,0 C 93 % 1023,3 hPa 0,0 l/m 0 min 0 min 0 W/m 6,4 km/h (2 Bft) 91,49 %
08.04.2021 02:34 1,3 C 0,6 C 0,0 C 93 % 1023,3 hPa 0,0 l/m 0 min 0 min 0 W/m 6,4 km/h (2 Bft) 97,87 %
08.04.2021 02:36 1,2 C 0,6 C 0,0 C 93 % 1023,3 hPa 0,0 l/m 0 min 0 min 0 W/m 12,9 km/h (3 Bft) 97,87 %
08.04.2021 02:38 1,3 C 0,6 C 0,0 C 93 % 1023,3 hPa 0,0 l/m 0 min 0 min 0 W/m 3,2 km/h (1 Bft) 97,92 %
08.04.2021 02:40 1,3 C 0,6 C 0,0 C 93 % 1023,3 hPa 0,0 l/m 0 min 0 min 0 W/m 6,4 km/h (2 Bft) 97,83 %
08.04.2021 02:42 1,3 C 0,6 C 0,0 C 93 % 1023,3 hPa 0,0 l/m 0 min 0 min 0 W/m 6,4 km/h (2 Bft) 97,87 %
08.04.2021 02:44 1,3 C 0,6 C 0,0 C 93 % 1023,4 hPa 0,0 l/m 0 min 0 min 0 W/m 12,9 km/h (3 Bft) 97,87 %
08.04.2021 02:46 1,2 C 0,6 C 0,0 C 93 % 1023,4 hPa 0,0 l/m 0 min 0 min 0 W/m 6,4 km/h (2 Bft) 97,87 %
08.04.2021 02:48 1,2 C 0,6 C 0,0 C 93 % 1023,4 hPa 0,0 l/m 0 min 0 min 0 W/m 6,4 km/h (2 Bft) 97,87 %
08.04.2021 02:50 1,2 C 0,6 C 0,0 C 93 % 1023,4 hPa 0,0 l/m 0 min 0 min 0 W/m 3,2 km/h (1 Bft) 97,87 %
08.04.2021 02:52 1,2 C 0,6 C 0,0 C 93 % 1023,4 hPa 0,0 l/m 0 min 0 min 0 W/m 3,2 km/h (1 Bft) 97,83 %
08.04.2021 02:54 1,2 C 0,6 C 0,0 C 93 % 1023,4 hPa 0,0 l/m 0 min 0 min 0 W/m 6,4 km/h (2 Bft) 97,87 %
08.04.2021 02:56 1,2 C 0,6 C 0,0 C 93 % 1023,5 hPa 0,0 l/m 0 min 0 min 0 W/m 3,2 km/h (1 Bft) 95,74 %
08.04.2021 02:58 1,2 C 0,6 C 0,0 C 93 % 1023,5 hPa 0,0 l/m 0 min 0 min 0 W/m 6,4 km/h (2 Bft) 97,87 %
08.04.2021 03:00 1,2 C 0,6 C 0,0 C 93 % 1023,5 hPa 0,0 l/m 0 min 0 min 0 W/m 6,4 km/h (2 Bft) 97,87 %
08.04.2021 03:02 1,1 C 0,6 C 0,0 C 93 % 1023,5 hPa 0,0 l/m 0 min 0 min 0 W/m 3,2 km/h (1 Bft) 96,23 %
08.04.2021 03:04 1,1 C 0,6 C 0,0 C 93 % 1023,5 hPa 0,0 l/m 0 min 0 min 0 W/m 3,2 km/h (1 Bft) 97,87 %
08.04.2021 03:06 1,1 C 0,6 C 0,0 C 93 % 1023,5 hPa 0,0 l/m 0 min 0 min 0 W/m 6,4 km/h (2 Bft) 97,87 %
08.04.2021 03:08 1,1 C 0,6 C 0,0 C 93 % 1023,5 hPa 0,0 l/m 0 min 0 min 0 W/m 3,2 km/h (1 Bft) 97,87 %
08.04.2021 03:10 1,1 C 0,6 C 0,0 C 93 % 1023,5 hPa 0,0 l/m 0 min 0 min 0 W/m 3,2 km/h (1 Bft) 97,87 %
08.04.2021 03:12 1,1 C 0,6 C 0,0 C 93 % 1023,5 hPa 0,0 l/m 0 min 0 min 0 W/m 3,2 km/h (1 Bft) 100,00 %
08.04.2021 03:14 1,1 C 0,6 C 0,0 C 93 % 1023,5 hPa 0,0 l/m 0 min 0 min 0 W/m 6,4 km/h (2 Bft) 100,00 %
08.04.2021 03:16 1,1 C 0,6 C 0,0 C 93 % 1023,6 hPa 0,0 l/m 0 min 0 min 0 W/m 6,4 km/h (2 Bft) 100,00 %
08.04.2021 03:18 1,1 C 0,6 C 0,0 C 93 % 1023,6 hPa 0,0 l/m 0 min 0 min 0 W/m 3,2 km/h (1 Bft) 97,87 %
08.04.2021 03:20 1,2 C 0,6 C 0,0 C 93 % 1023,6 hPa 0,0 l/m 0 min 0 min 0 W/m 6,4 km/h (2 Bft) 97,87 %
08.04.2021 03:22 1,1 C 0,6 C 0,0 C 93 % 1023,6 hPa 0,0 l/m 0 min 0 min 0 W/m 6,4 km/h (2 Bft) 97,87 %
08.04.2021 03:24 1,1 C 0,6 C 0,0 C 94 % 1023,6 hPa 0,0 l/m 0 min 0 min 0 W/m 6,4 km/h (2 Bft) 100,00 %
08.04.2021 03:26 1,2 C 0,6 C 0,0 C 94 % 1023,6 hPa 0,0 l/m 0 min 0 min 0 W/m 9,7 km/h (2 Bft) 91,49 %
08.04.2021 03:28 1,2 C 0,6 C 0,0 C 94 % 1023,6 hPa 0,0 l/m 0 min 0 min 0 W/m 9,7 km/h (2 Bft) 95,74 %
08.04.2021 03:30 1,2 C 0,6 C 0,0 C 94 % 1023,6 hPa 0,0 l/m 0 min 0 min 0 W/m 3,2 km/h (1 Bft) 95,74 %
08.04.2021 03:32 1,2 C 0,6 C 0,0 C 94 % 1023,6 hPa 0,0 l/m 0 min 0 min 0 W/m 12,9 km/h (3 Bft) 93,62 %
08.04.2021 03:34 1,2 C 0,6 C 0,0 C 94 % 1023,6 hPa 0,0 l/m 0 min 0 min 0 W/m 3,2 km/h (1 Bft) 95,74 %
08.04.2021 03:36 1,2 C 0,6 C 0,0 C 94 % 1023,6 hPa 0,0 l/m 0 min 0 min 0 W/m 3,2 km/h (1 Bft) 95,65 %
08.04.2021 03:38 1,2 C 0,6 C 0,0 C 94 % 1023,6 hPa 0,0 l/m 0 min 0 min 0 W/m 6,4 km/h (2 Bft) 94,34 %
08.04.2021 03:40 1,1 C 0,6 C 0,0 C 94 % 1023,6 hPa 0,0 l/m 0 min 0 min 0 W/m 3,2 km/h (1 Bft) 95,74 %
08.04.2021 03:42 1,1 C 0,6 C 0,0 C 94 % 1023,7 hPa 0,0 l/m 0 min 0 min 0 W/m 6,4 km/h (2 Bft) 95,74 %
08.04.2021 03:44 1,1 C 0,6 C 0,0 C 94 % 1023,7 hPa 0,0 l/m 0 min 0 min 0 W/m 9,7 km/h (2 Bft) 93,62 %
08.04.2021 03:46 1,1 C 0,6 C 0,0 C 94 % 1023,7 hPa 0,0 l/m 0 min 0 min 0 W/m 6,4 km/h (2 Bft) 93,62 %
08.04.2021 03:48 1,1 C 0,6 C 0,0 C 94 % 1023,7 hPa 0,0 l/m 0 min 0 min 0 W/m 3,2 km/h (1 Bft) 93,62 %
08.04.2021 03:50 1,1 C 0,6 C 0,0 C 94 % 1023,7 hPa 0,0 l/m 0 min 0 min 0 W/m 3,2 km/h (1 Bft) 95,74 %
08.04.2021 03:52 1,1 C 0,6 C 0,0 C 93 % 1023,7 hPa 0,0 l/m 0 min 0 min 0 W/m 6,4 km/h (2 Bft) 91,49 %
08.04.2021 03:54 1,1 C 0,6 C 0,0 C 93 % 1023,7 hPa 0,0 l/m 0 min 0 min 0 W/m 3,2 km/h (1 Bft) 95,74 %
08.04.2021 03:56 1,1 C 0,6 C 0,0 C 93 % 1023,7 hPa 0,0 l/m 0 min 0 min 0 W/m 3,2 km/h (1 Bft) 95,74 %
08.04.2021 03:58 1,1 C 0,6 C 0,0 C 93 % 1023,7 hPa 0,0 l/m 0 min 0 min 0 W/m 6,4 km/h (2 Bft) 93,62 %
08.04.2021 04:00 1,1 C 0,6 C 0,0 C 93 % 1023,7 hPa 0,0 l/m 0 min 0 min 0 W/m 6,4 km/h (2 Bft) 95,74 %
08.04.2021 04:02 1,1 C 0,6 C 0,0 C 93 % 1023,7 hPa 0,0 l/m 0 min 0 min 0 W/m 3,2 km/h (1 Bft) 93,33 %
08.04.2021 04:04 1,1 C 0,6 C 0,0 C 93 % 1023,7 hPa 0,0 l/m 0 min 0 min 0 W/m 3,2 km/h (1 Bft) 95,74 %
08.04.2021 04:06 1,1 C 0,6 C 0,0 C 93 % 1023,8 hPa 0,0 l/m 0 min 0 min 0 W/m 6,4 km/h (2 Bft) 95,74 %
08.04.2021 04:08 1,1 C 0,6 C 0,0 C 93 % 1023,8 hPa 0,0 l/m 0 min 0 min 0 W/m 6,4 km/h (2 Bft) 95,83 %
08.04.2021 04:10 1,1 C 0,6 C 0,0 C 93 % 1023,7 hPa 0,0 l/m 0 min 0 min 0 W/m 3,2 km/h (1 Bft) 95,74 %
08.04.2021 04:12 1,1 C 0,6 C 0,0 C 93 % 1023,7 hPa 0,0 l/m 0 min 0 min 0 W/m 6,4 km/h (2 Bft) 95,65 %
08.04.2021 04:14 1,1 C 0,6 C 0,0 C 93 % 1023,8 hPa 0,0 l/m 0 min 0 min 0 W/m 12,9 km/h (3 Bft) 95,74 %
08.04.2021 04:16 1,1 C 0,6 C 0,0 C 93 % 1023,7 hPa 0,0 l/m 0 min 0 min 0 W/m 6,4 km/h (2 Bft) 93,62 %
08.04.2021 04:18 1,1 C 0,6 C 0,0 C 93 % 1023,7 hPa 0,0 l/m 0 min 0 min 0 W/m 3,2 km/h (1 Bft) 95,74 %
08.04.2021 04:20 1,1 C 0,6 C 0,0 C 93 % 1023,7 hPa 0,0 l/m 0 min 0 min 0 W/m 6,4 km/h (2 Bft) 93,62 %
08.04.2021 04:22 1,1 C 0,6 C 0,0 C 93 % 1023,7 hPa 0,0 l/m 0 min 0 min 0 W/m 6,4 km/h (2 Bft) 97,87 %
08.04.2021 04:24 1,1 C 0,6 C 0,0 C 93 % 1023,7 hPa 0,0 l/m 0 min 0 min 0 W/m 9,7 km/h (2 Bft) 97,87 %
08.04.2021 04:26 1,1 C 0,6 C 0,0 C 93 % 1023,7 hPa 0,0 l/m 0 min 0 min 0 W/m 6,4 km/h (2 Bft) 97,83 %
08.04.2021 04:28 1,1 C 0,6 C 0,0 C 93 % 1023,7 hPa 0,0 l/m 0 min 0 min 0 W/m 3,2 km/h (1 Bft) 97,87 %
08.04.2021 04:30 1,1 C 0,6 C 0,0 C 93 % 1023,7 hPa 0,0 l/m 0 min 0 min 0 W/m 3,2 km/h (1 Bft) 97,87 %
08.04.2021 04:32 1,1 C 0,6 C 0,0 C 93 % 1023,7 hPa 0,0 l/m 0 min 0 min 0 W/m 3,2 km/h (1 Bft) 97,22 %
08.04.2021 04:34 1,1 C 0,6 C 0,0 C 93 % 1023,7 hPa 0,0 l/m 0 min 0 min 0 W/m 3,2 km/h (1 Bft) 100,00 %
08.04.2021 04:36 1,1 C 0,6 C 0,0 C 93 % 1023,7 hPa 0,0 l/m 0 min 0 min 0 W/m 3,2 km/h (1 Bft) 97,87 %
08.04.2021 04:38 1,1 C 0,6 C 0,0 C 93 % 1023,7 hPa 0,0 l/m 0 min 0 min 0 W/m 3,2 km/h (1 Bft) 98,31 %
08.04.2021 04:40 1,1 C 0,6 C 0,0 C 93 % 1023,7 hPa 0,0 l/m 0 min 0 min 0 W/m 6,4 km/h (2 Bft) 97,14 %
08.04.2021 04:42 1,2 C 0,6 C 0,0 C 93 % 1023,7 hPa 0,0 l/m 0 min 0 min 0 W/m 3,2 km/h (1 Bft) 95,74 %
08.04.2021 04:44 1,2 C 0,6 C 0,0 C 93 % 1023,7 hPa 0,0 l/m 0 min 0 min 0 W/m 6,4 km/h (2 Bft) 97,87 %
08.04.2021 04:46 1,2 C 0,6 C 0,0 C 93 % 1023,7 hPa 0,0 l/m 0 min 0 min 0 W/m 6,4 km/h (2 Bft) 97,87 %
08.04.2021 04:48 1,2 C 0,6 C 0,6 C 93 % 1023,7 hPa 0,0 l/m 0 min 0 min 0 W/m 6,4 km/h (2 Bft) 93,48 %
08.04.2021 04:50 1,2 C 0,6 C 0,6 C 93 % 1023,7 hPa 0,0 l/m 0 min 0 min 0 W/m 6,4 km/h (2 Bft) 95,74 %
08.04.2021 04:52 1,2 C 0,6 C 0,6 C 93 % 1023,7 hPa 0,0 l/m 0 min 0 min 0 W/m 6,4 km/h (2 Bft) 95,74 %
08.04.2021 04:54 1,2 C 0,6 C 0,6 C 93 % 1023,8 hPa 0,0 l/m 0 min 0 min 0 W/m 9,7 km/h (2 Bft) 95,74 %
08.04.2021 04:56 1,2 C 0,6 C 0,6 C 93 % 1023,8 hPa 0,0 l/m 0 min 0 min 0 W/m 12,9 km/h (3 Bft) 93,62 %
08.04.2021 04:58 1,2 C 0,6 C 0,6 C 93 % 1023,8 hPa 0,0 l/m 0 min 0 min 0 W/m 3,2 km/h (1 Bft) 95,65 %
08.04.2021 05:00 1,2 C 0,6 C 0,6 C 93 % 1023,7 hPa 0,0 l/m 0 min 0 min 0 W/m 6,4 km/h (2 Bft) 95,74 %
08.04.2021 05:02 1,2 C 0,6 C 0,6 C 93 % 1023,8 hPa 0,0 l/m 0 min 0 min 0 W/m 3,2 km/h (1 Bft) 95,74 %
08.04.2021 05:04 1,2 C 0,6 C 0,6 C 93 % 1023,7 hPa 0,0 l/m 0 min 0 min 0 W/m 6,4 km/h (2 Bft) 93,62 %
08.04.2021 05:06 1,2 C 0,6 C 0,6 C 93 % 1023,7 hPa 0,0 l/m 0 min 0 min 0 W/m 6,4 km/h (2 Bft) 96,55 %
08.04.2021 05:08 1,2 C 0,6 C 0,6 C 93 % 1023,8 hPa 0,0 l/m 0 min 0 min 0 W/m 6,4 km/h (2 Bft) 94,44 %
08.04.2021 05:10 1,3 C 0,6 C 0,6 C 93 % 1023,8 hPa 0,0 l/m 0 min 0 min 0 W/m 6,4 km/h (2 Bft) 97,83 %
08.04.2021 05:12 1,3 C 0,6 C 0,6 C 93 % 1023,8 hPa 0,0 l/m 0 min 0 min 0 W/m 6,4 km/h (2 Bft) 95,74 %
08.04.2021 05:14 1,3 C 0,6 C 0,6 C 93 % 1023,8 hPa 0,0 l/m 0 min 0 min 0 W/m 6,4 km/h (2 Bft) 93,62 %
08.04.2021 05:16 1,3 C 0,6 C 0,6 C 93 % 1023,8 hPa 0,0 l/m 0 min 0 min 0 W/m 6,4 km/h (2 Bft) 95,74 %
08.04.2021 05:18 1,3 C 0,6 C 0,6 C 93 % 1023,7 hPa 0,0 l/m 0 min 0 min 0 W/m 3,2 km/h (1 Bft) 93,62 %
08.04.2021 05:20 1,3 C 0,6 C 0,6 C 93 % 1023,8 hPa 0,0 l/m 0 min 0 min 0 W/m 3,2 km/h (1 Bft) 95,74 %
08.04.2021 05:22 1,3 C 0,6 C 0,6 C 93 % 1023,8 hPa 0,0 l/m 0 min 0 min 0 W/m 6,4 km/h (2 Bft) 93,48 %
08.04.2021 05:24 1,3 C 0,6 C 0,6 C 93 % 1023,8 hPa 0,0 l/m 0 min 0 min 0 W/m 6,4 km/h (2 Bft) 95,74 %
08.04.2021 05:26 1,3 C 0,6 C 0,6 C 92 % 1023,8 hPa 0,0 l/m 0 min 0 min 0 W/m 3,2 km/h (1 Bft) 97,87 %
08.04.2021 05:28 1,3 C 0,6 C 0,6 C 92 % 1023,8 hPa 0,0 l/m 0 min 0 min 0 W/m 6,4 km/h (2 Bft) 97,87 %
08.04.2021 05:30 1,3 C 0,6 C 0,6 C 93 % 1023,9 hPa 0,0 l/m 0 min 0 min 0 W/m 3,2 km/h (1 Bft) 97,87 %
08.04.2021 05:32 1,3 C 0,6 C 0,6 C 92 % 1023,8 hPa 0,0 l/m 0 min 0 min 0 W/m 3,2 km/h (1 Bft) 97,87 %
08.04.2021 05:34 1,3 C 0,6 C 0,6 C 92 % 1023,9 hPa 0,0 l/m 0 min 0 min 0 W/m 6,4 km/h (2 Bft) 97,83 %
08.04.2021 05:36 1,3 C 0,6 C 0,6 C 92 % 1023,9 hPa 0,0 l/m 0 min 0 min 0 W/m 6,4 km/h (2 Bft) 97,87 %
08.04.2021 05:38 1,3 C 0,6 C 0,6 C 92 % 1023,9 hPa 0,0 l/m 0 min 0 min 0 W/m 3,2 km/h (1 Bft) 97,87 %
08.04.2021 05:40 1,3 C 0,6 C 0,6 C 92 % 1023,9 hPa 0,0 l/m 0 min 0 min 0 W/m 3,2 km/h (1 Bft) 100,00 %
08.04.2021 05:42 1,3 C 0,6 C 0,6 C 92 % 1024,0 hPa 0,0 l/m 0 min 0 min 0 W/m 6,4 km/h (2 Bft) 100,00 %
08.04.2021 05:44 1,3 C 0,6 C 0,6 C 92 % 1023,9 hPa 0,0 l/m 0 min 0 min 0 W/m 3,2 km/h (1 Bft) 100,00 %
08.04.2021 05:46 1,3 C 0,6 C 0,6 C 92 % 1024,0 hPa 0,0 l/m 0 min 0 min 0 W/m 3,2 km/h (1 Bft) 100,00 %
08.04.2021 05:48 1,3 C 0,6 C 0,6 C 92 % 1024,0 hPa 0,0 l/m 0 min 0 min 0 W/m 3,2 km/h (1 Bft) 97,87 %
08.04.2021 05:50 1,3 C 0,6 C 0,6 C 92 % 1024,0 hPa 0,0 l/m 0 min 0 min 0 W/m 3,2 km/h (1 Bft) 100,00 %
08.04.2021 05:52 1,3 C 0,6 C 0,6 C 92 % 1023,9 hPa 0,0 l/m 0 min 0 min 0 W/m 3,2 km/h (1 Bft) 97,87 %
08.04.2021 05:54 1,3 C 0,6 C 0,6 C 92 % 1024,0 hPa 0,0 l/m 0 min 0 min 0 W/m 0,0 km/h (0 Bft) 100,00 %
08.04.2021 05:56 1,3 C 0,6 C 0,6 C 92 % 1024,0 hPa 0,0 l/m 0 min 0 min 0 W/m 3,2 km/h (1 Bft) 97,87 %
08.04.2021 05:58 1,3 C 0,6 C 0,6 C 92 % 1024,0 hPa 0,0 l/m 0 min 0 min 0 W/m 3,2 km/h (1 Bft) 100,00 %
08.04.2021 06:00 1,3 C 0,6 C 0,6 C 92 % 1024,0 hPa 0,0 l/m 0 min 0 min 0 W/m 3,2 km/h (1 Bft) 100,00 %
08.04.2021 06:02 1,3 C 0,6 C 0,6 C 92 % 1024,0 hPa 0,0 l/m 0 min 0 min 0 W/m 0,0 km/h (0 Bft) 33,33 %
08.04.2021 06:04 1,3 C 0,6 C 0,6 C 92 % 1024,0 hPa 0,0 l/m 0 min 0 min 0 W/m 3,2 km/h (1 Bft) 100,00 %
08.04.2021 06:08 1,3 C 0,6 C 0,6 C 92 % 1024,0 hPa 0,0 l/m 0 min 0 min 0 W/m 3,2 km/h (1 Bft) 98,02 %
08.04.2021 06:10 1,3 C 0,6 C 0,6 C 93 % 1024,0 hPa 0,0 l/m 0 min 0 min 0 W/m 3,2 km/h (1 Bft) 100,00 %
08.04.2021 06:12 1,3 C 0,6 C 0,6 C 92 % 1024,0 hPa 0,0 l/m 0 min 0 min 0 W/m 3,2 km/h (1 Bft) 100,00 %
08.04.2021 06:14 1,3 C 0,6 C 0,6 C 92 % 1024,0 hPa 0,0 l/m 0 min 0 min 0 W/m 3,2 km/h (1 Bft) 100,00 %
08.04.2021 06:16 1,3 C 0,6 C 0,6 C 92 % 1024,0 hPa 0,0 l/m 0 min 0 min 0 W/m 3,2 km/h (1 Bft) 97,87 %
08.04.2021 06:18 1,3 C 0,6 C 0,6 C 92 % 1024,0 hPa 0,0 l/m 0 min 0 min 0 W/m 3,2 km/h (1 Bft) 100,00 %
08.04.2021 06:20 1,3 C 0,6 C 0,6 C 92 % 1024,1 hPa 0,0 l/m 0 min 0 min 0 W/m 3,2 km/h (1 Bft) 100,00 %
08.04.2021 06:22 1,3 C 0,6 C 0,6 C 92 % 1024,0 hPa 0,0 l/m 0 min 0 min 0 W/m 3,2 km/h (1 Bft) 100,00 %
08.04.2021 06:24 1,3 C 0,6 C 0,6 C 92 % 1024,1 hPa 0,0 l/m 0 min 0 min 0 W/m 3,2 km/h (1 Bft) 100,00 %
08.04.2021 06:26 1,3 C 0,6 C 0,6 C 93 % 1024,0 hPa 0,0 l/m 0 min 0 min 0 W/m 0,0 km/h (0 Bft) 97,50 %
08.04.2021 06:28 1,3 C 0,6 C 0,6 C 93 % 1024,1 hPa 0,0 l/m 0 min 0 min 0 W/m 3,2 km/h (1 Bft) 100,00 %
08.04.2021 06:30 1,3 C 0,6 C 0,6 C 93 % 1024,1 hPa 0,0 l/m 0 min 0 min 0 W/m 3,2 km/h (1 Bft) 100,00 %
08.04.2021 06:32 1,3 C 0,6 C 0,6 C 93 % 1024,1 hPa 0,0 l/m 0 min 0 min 0 W/m 3,2 km/h (1 Bft) 100,00 %
08.04.2021 06:34 1,3 C 0,6 C 0,6 C 93 % 1024,1 hPa 0,0 l/m 0 min 0 min 0 W/m 3,2 km/h (1 Bft) 100,00 %
08.04.2021 06:36 1,3 C 0,6 C 0,6 C 93 % 1024,1 hPa 0,0 l/m 0 min 0 min 0 W/m 3,2 km/h (1 Bft) 97,87 %
08.04.2021 06:38 1,3 C 0,6 C 0,6 C 93 % 1024,0 hPa 0,0 l/m 0 min 0 min 0 W/m 0,0 km/h (0 Bft) 100,00 %
08.04.2021 06:40 1,3 C 0,6 C 0,6 C 93 % 1024,1 hPa 0,0 l/m 0 min 0 min 0 W/m 0,0 km/h (0 Bft) 95,74 %
08.04.2021 06:42 1,3 C 0,6 C 0,6 C 93 % 1024,1 hPa 0,0 l/m 0 min 0 min 0 W/m 3,2 km/h (1 Bft) 95,74 %
08.04.2021 06:44 1,3 C 0,6 C 0,6 C 93 % 1024,1 hPa 0,0 l/m 0 min 0 min 0 W/m 0,0 km/h (0 Bft) 97,87 %
08.04.2021 06:46 1,3 C 0,6 C 0,6 C 93 % 1024,1 hPa 0,0 l/m 0 min 0 min 0 W/m 3,2 km/h (1 Bft) 97,92 %
08.04.2021 06:48 1,3 C 0,6 C 0,6 C 93 % 1024,1 hPa 0,0 l/m 0 min 0 min 0 W/m 3,2 km/h (1 Bft) 97,83 %
08.04.2021 06:50 1,3 C 0,6 C 0,6 C 93 % 1024,1 hPa 0,0 l/m 0 min 0 min 0 W/m 3,2 km/h (1 Bft) 95,74 %
08.04.2021 06:52 1,3 C 0,6 C 0,6 C 92 % 1024,0 hPa 0,0 l/m 0 min 0 min 0 W/m 3,2 km/h (1 Bft) 97,87 %
08.04.2021 06:54 1,3 C 0,6 C 0,6 C 92 % 1024,1 hPa 0,0 l/m 0 min 0 min 0 W/m 3,2 km/h (1 Bft) 97,87 %
08.04.2021 06:56 1,3 C 0,6 C 0,6 C 92 % 1024,1 hPa 0,0 l/m 0 min 0 min 0 W/m 3,2 km/h (1 Bft) 97,87 %
08.04.2021 06:58 1,3 C 0,6 C 0,6 C 92 % 1024,1 hPa 0,0 l/m 0 min 0 min 1 W/m 3,2 km/h (1 Bft) 97,87 %
08.04.2021 07:00 1,3 C 0,6 C 0,6 C 92 % 1024,1 hPa 0,0 l/m 0 min 0 min 5 W/m 3,2 km/h (1 Bft) 95,65 %
08.04.2021 07:02 1,3 C 0,6 C 0,6 C 92 % 1024,1 hPa 0,0 l/m 0 min 0 min 5 W/m 3,2 km/h (1 Bft) 97,92 %
08.04.2021 07:04 1,3 C 0,6 C 0,6 C 92 % 1024,2 hPa 0,0 l/m 0 min 0 min 5 W/m 3,2 km/h (1 Bft) 95,74 %
08.04.2021 07:06 1,3 C 0,6 C 0,6 C 92 % 1024,2 hPa 0,0 l/m 0 min 0 min 7 W/m 3,2 km/h (1 Bft) 95,74 %
08.04.2021 07:08 1,3 C 0,6 C 0,6 C 92 % 1024,2 hPa 0,0 l/m 0 min 0 min 7 W/m 0,0 km/h (0 Bft) 93,62 %
08.04.2021 07:10 1,3 C 0,6 C 0,6 C 92 % 1024,2 hPa 0,0 l/m 0 min 0 min 7 W/m 0,0 km/h (0 Bft) 93,62 %
08.04.2021 07:12 1,3 C 0,6 C 0,6 C 92 % 1024,2 hPa 0,0 l/m 0 min 0 min 9 W/m 3,2 km/h (1 Bft) 95,65 %
08.04.2021 07:14 1,3 C 0,6 C 0,6 C 92 % 1024,2 hPa 0,0 l/m 0 min 0 min 9 W/m 0,0 km/h (0 Bft) 95,74 %
08.04.2021 07:16 1,3 C 0,6 C 0,6 C 93 % 1024,2 hPa 0,0 l/m 0 min 0 min 10 W/m 0,0 km/h (0 Bft) 93,62 %
08.04.2021 07:18 1,3 C 0,6 C 0,6 C 93 % 1024,2 hPa 0,0 l/m 0 min 0 min 12 W/m 6,4 km/h (2 Bft) 95,74 %
08.04.2021 07:20 1,3 C 1,1 C 0,6 C 93 % 1024,2 hPa 0,0 l/m 0 min 0 min 12 W/m 6,4 km/h (2 Bft) 95,74 %
08.04.2021 07:22 1,3 C 1,1 C 0,6 C 92 % 1024,2 hPa 0,0 l/m 0 min 0 min 14 W/m 6,4 km/h (2 Bft) 95,65 %
08.04.2021 07:24 1,3 C 1,1 C 0,6 C 92 % 1024,2 hPa 0,0 l/m 0 min 0 min 15 W/m 3,2 km/h (1 Bft) 95,74 %
08.04.2021 07:26 1,3 C 1,1 C 0,6 C 92 % 1024,2 hPa 0,0 l/m 0 min 0 min 18 W/m 3,2 km/h (1 Bft) 95,74 %
08.04.2021 07:28 1,3 C 1,1 C 0,6 C 92 % 1024,3 hPa 0,0 l/m 0 min 0 min 18 W/m 6,4 km/h (2 Bft) 95,74 %
08.04.2021 07:30 1,3 C 1,1 C 0,6 C 92 % 1024,3 hPa 0,0 l/m 0 min 0 min 19 W/m 6,4 km/h (2 Bft) 95,74 %
08.04.2021 07:32 1,3 C 1,1 C 0,6 C 92 % 1024,3 hPa 0,0 l/m 0 min 0 min 21 W/m 6,4 km/h (2 Bft) 93,75 %
08.04.2021 07:34 1,3 C 1,1 C 0,6 C 92 % 1024,3 hPa 0,0 l/m 0 min 0 min 23 W/m 3,2 km/h (1 Bft) 97,83 %
08.04.2021 07:36 1,3 C 1,1 C 0,6 C 92 % 1024,3 hPa 0,0 l/m 0 min 0 min 25 W/m 6,4 km/h (2 Bft) 97,87 %
08.04.2021 07:38 1,3 C 1,1 C 0,6 C 92 % 1024,4 hPa 0,0 l/m 0 min 0 min 25 W/m 3,2 km/h (1 Bft) 50,00 %
08.04.2021 07:40 1,3 C 1,1 C 0,6 C 92 % 1024,3 hPa 0,0 l/m 0 min 0 min 26 W/m 3,2 km/h (1 Bft) 97,87 %
08.04.2021 07:42 1,4 C 1,1 C 1,1 C 92 % 1024,4 hPa 0,0 l/m 0 min 0 min 29 W/m 3,2 km/h (1 Bft) 97,83 %
08.04.2021 07:44 1,4 C 1,1 C 1,1 C 92 % 1024,3 hPa 0,0 l/m 0 min 0 min 31 W/m 3,2 km/h (1 Bft) 97,87 %
08.04.2021 07:46 1,4 C 1,1 C 1,1 C 92 % 1024,4 hPa 0,0 l/m 0 min 0 min 33 W/m 0,0 km/h (0 Bft) 100,00 %
08.04.2021 07:48 1,4 C 1,1 C 1,1 C 92 % 1024,4 hPa 0,0 l/m 0 min 0 min 35 W/m 3,2 km/h (1 Bft) 97,87 %
08.04.2021 07:50 1,4 C 1,1 C 1,1 C 91 % 1024,3 hPa 0,0 l/m 0 min 0 min 39 W/m 3,2 km/h (1 Bft) 95,74 %
08.04.2021 07:52 1,5 C 1,1 C 1,1 C 91 % 1024,4 hPa 0,0 l/m 0 min 0 min 41 W/m 6,4 km/h (2 Bft) 100,00 %
08.04.2021 07:54 1,5 C 1,7 C 1,1 C 91 % 1024,4 hPa 0,0 l/m 0 min 0 min 44 W/m 3,2 km/h (1 Bft) 97,83 %
08.04.2021 07:56 1,5 C 1,7 C 1,1 C 91 % 1024,4 hPa 0,0 l/m 0 min 0 min 46 W/m 3,2 km/h (1 Bft) 100,00 %
08.04.2021 07:58 1,5 C 1,7 C 1,1 C 91 % 1024,4 hPa 0,0 l/m 0 min 0 min 47 W/m 6,4 km/h (2 Bft) 97,87 %
08.04.2021 08:00 1,5 C 1,7 C 1,1 C 91 % 1024,4 hPa 0,0 l/m 0 min 0 min 49 W/m 3,2 km/h (1 Bft) 100,00 %
08.04.2021 08:02 1,6 C 1,7 C 1,1 C 91 % 1024,4 hPa 0,0 l/m 0 min 0 min 51 W/m 3,2 km/h (1 Bft) 100,00 %
08.04.2021 08:04 1,6 C 1,7 C 1,1 C 91 % 1024,4 hPa 0,0 l/m 0 min 0 min 53 W/m 3,2 km/h (1 Bft) 97,87 %
08.04.2021 08:06 1,6 C 1,7 C 1,1 C 90 % 1024,5 hPa 0,0 l/m 0 min 0 min 53 W/m 3,2 km/h (1 Bft) 100,00 %
08.04.2021 08:08 1,6 C 1,7 C 1,1 C 90 % 1024,5 hPa 0,0 l/m 0 min 0 min 54 W/m 3,2 km/h (1 Bft) 100,00 %
08.04.2021 08:10 1,7 C 1,7 C 1,1 C 90 % 1024,5 hPa 0,0 l/m 0 min 0 min 57 W/m 9,7 km/h (2 Bft) 100,00 %
08.04.2021 08:12 1,8 C 1,7 C 1,1 C 90 % 1024,5 hPa 0,0 l/m 0 min 0 min 60 W/m 6,4 km/h (2 Bft) 100,00 %
08.04.2021 08:14 1,8 C 1,7 C 1,1 C 90 % 1024,5 hPa 0,0 l/m 0 min 0 min 63 W/m 6,4 km/h (2 Bft) 100,00 %
08.04.2021 08:16 1,8 C 1,7 C 1,1 C 90 % 1024,5 hPa 0,0 l/m 0 min 0 min 69 W/m 6,4 km/h (2 Bft) 97,87 %
08.04.2021 08:18 1,8 C 1,7 C 1,7 C 89 % 1024,5 hPa 0,0 l/m 0 min 0 min 73 W/m 3,2 km/h (1 Bft) 97,83 %
08.04.2021 08:20 1,9 C 2,2 C 1,7 C 89 % 1024,5 hPa 0,0 l/m 0 min 0 min 77 W/m 12,9 km/h (3 Bft) 100,00 %
08.04.2021 08:22 1,9 C 2,2 C 1,7 C 89 % 1024,6 hPa 0,0 l/m 0 min 0 min 82 W/m 12,9 km/h (3 Bft) 100,00 %
08.04.2021 08:24 1,9 C 2,2 C 1,7 C 89 % 1024,6 hPa 0,0 l/m 0 min 0 min 86 W/m 3,2 km/h (1 Bft) 97,87 %
08.04.2021 08:26 2,0 C 2,2 C 1,7 C 89 % 1024,6 hPa 0,0 l/m 0 min 0 min 90 W/m 12,9 km/h (3 Bft) 100,00 %
08.04.2021 08:28 2,0 C 2,2 C 1,7 C 89 % 1024,6 hPa 0,0 l/m 0 min 0 min 88 W/m 6,4 km/h (2 Bft) 100,00 %
08.04.2021 08:30 2,0 C 2,2 C 1,7 C 88 % 1024,6 hPa 0,0 l/m 0 min 0 min 91 W/m 6,4 km/h (2 Bft) 100,00 %
08.04.2021 08:32 2,1 C 2,2 C 1,7 C 88 % 1024,6 hPa 0,0 l/m 0 min 0 min 97 W/m 6,4 km/h (2 Bft) 100,00 %
08.04.2021 08:34 2,1 C 2,2 C 1,7 C 88 % 1024,6 hPa 0,0 l/m 0 min 0 min 99 W/m 6,4 km/h (2 Bft) 100,00 %
08.04.2021 08:36 2,1 C 2,2 C 1,7 C 88 % 1024,6 hPa 0,0 l/m 0 min 0 min 102 W/m 3,2 km/h (1 Bft) 100,00 %
08.04.2021 08:38 2,2 C 2,8 C 1,7 C 88 % 1024,7 hPa 0,0 l/m 0 min 0 min 104 W/m 6,4 km/h (2 Bft) 100,00 %
08.04.2021 08:40 2,2 C 2,8 C 1,7 C 88 % 1024,7 hPa 0,0 l/m 0 min 0 min 106 W/m 6,4 km/h (2 Bft) 100,00 %
08.04.2021 08:42 2,3 C 2,8 C 2,3 C 87 % 1024,8 hPa 0,0 l/m 0 min 0 min 113 W/m 6,4 km/h (2 Bft) 100,00 %
08.04.2021 08:44 2,3 C 2,8 C 2,3 C 87 % 1024,8 hPa 0,0 l/m 0 min 0 min 114 W/m 9,7 km/h (2 Bft) 100,00 %
08.04.2021 08:46 2,3 C 2,8 C 2,3 C 87 % 1024,8 hPa 0,0 l/m 0 min 0 min 116 W/m 6,4 km/h (2 Bft) 100,00 %
08.04.2021 08:48 2,4 C 2,8 C 2,3 C 87 % 1024,8 hPa 0,0 l/m 0 min 0 min 116 W/m 3,2 km/h (1 Bft) 100,00 %
08.04.2021 08:50 2,4 C 2,8 C 2,3 C 87 % 1024,8 hPa 0,0 l/m 0 min 0 min 118 W/m 6,4 km/h (2 Bft) 100,00 %
08.04.2021 08:52 2,4 C 2,8 C 2,3 C 87 % 1024,8 hPa 0,0 l/m 0 min 0 min 119 W/m 16,1 km/h (3 Bft) 100,00 %
08.04.2021 08:54 2,5 C 2,8 C 2,3 C 87 % 1024,7 hPa 0,0 l/m 0 min 0 min 128 W/m 3,2 km/h (1 Bft) 100,00 %
08.04.2021 08:56 2,5 C 2,8 C 2,3 C 86 % 1024,8 hPa 0,0 l/m 0 min 0 min 128 W/m 6,4 km/h (2 Bft) 100,00 %
08.04.2021 08:58 2,5 C 2,8 C 2,3 C 86 % 1024,8 hPa 0,0 l/m 0 min 0 min 131 W/m 6,4 km/h (2 Bft) 97,87 %
08.04.2021 09:00 2,6 C 3,3 C 2,3 C 86 % 1024,8 hPa 0,0 l/m 0 min 0 min 132 W/m 9,7 km/h (2 Bft) 100,00 %
08.04.2021 09:02 2,6 C 2,8 C 2,3 C 86 % 1024,8 hPa 0,0 l/m 0 min 0 min 131 W/m 12,9 km/h (3 Bft) 97,87 %
08.04.2021 09:04 2,6 C 2,8 C 2,3 C 86 % 1024,9 hPa 0,0 l/m 0 min 0 min 132 W/m 6,4 km/h (2 Bft) 100,00 %
08.04.2021 09:06 2,7 C 3,3 C 2,3 C 85 % 1024,8 hPa 0,0 l/m 0 min 0 min 134 W/m 6,4 km/h (2 Bft) 100,00 %
08.04.2021 09:08 2,7 C 3,3 C 2,3 C 85 % 1024,9 hPa 0,0 l/m 0 min 0 min 129 W/m 6,4 km/h (2 Bft) 97,87 %
08.04.2021 09:10 2,8 C 3,3 C 2,3 C 85 % 1024,9 hPa 0,0 l/m 0 min 0 min 128 W/m 16,1 km/h (3 Bft) 100,00 %
08.04.2021 09:12 2,8 C 3,3 C 2,3 C 85 % 1024,9 hPa 0,0 l/m 0 min 0 min 128 W/m 6,4 km/h (2 Bft) 97,87 %
08.04.2021 09:14 2,9 C 3,3 C 2,3 C 85 % 1024,9 hPa 0,0 l/m 0 min 0 min 130 W/m 12,9 km/h (3 Bft) 100,00 %
08.04.2021 09:16 2,9 C 3,3 C 2,8 C 85 % 1024,9 hPa 0,0 l/m 0 min 0 min 134 W/m 3,2 km/h (1 Bft) 97,83 %
08.04.2021 09:18 2,9 C 3,3 C 2,8 C 85 % 1024,9 hPa 0,0 l/m 0 min 0 min 136 W/m 12,9 km/h (3 Bft) 100,00 %
08.04.2021 09:20 2,9 C 3,3 C 2,8 C 84 % 1024,9 hPa 0,0 l/m 0 min 0 min 134 W/m 12,9 km/h (3 Bft) 97,87 %
08.04.2021 09:22 3,0 C 3,3 C 2,8 C 84 % 1024,9 hPa 0,0 l/m 0 min 0 min 136 W/m 12,9 km/h (3 Bft) 100,00 %
08.04.2021 09:24 3,0 C 3,3 C 2,8 C 84 % 1024,9 hPa 0,0 l/m 0 min 0 min 145 W/m 3,2 km/h (1 Bft) 95,74 %
08.04.2021 09:26 3,0 C 3,9 C 2,8 C 84 % 1024,9 hPa 0,0 l/m 0 min 0 min 154 W/m 3,2 km/h (1 Bft) 97,87 %
08.04.2021 09:28 3,1 C 3,9 C 2,8 C 84 % 1025,0 hPa 0,0 l/m 0 min 0 min 159 W/m 3,2 km/h (1 Bft) 97,83 %
08.04.2021 09:30 3,1 C 3,9 C 2,8 C 84 % 1025,0 hPa 0,0 l/m 0 min 0 min 164 W/m 12,9 km/h (3 Bft) 100,00 %
08.04.2021 09:32 3,1 C 3,9 C 2,8 C 84 % 1025,0 hPa 0,0 l/m 0 min 0 min 173 W/m 6,4 km/h (2 Bft) 97,87 %
08.04.2021 09:34 3,3 C 3,9 C 3,4 C 84 % 1025,0 hPa 0,0 l/m 0 min 0 min 180 W/m 6,4 km/h (2 Bft) 95,74 %
08.04.2021 09:36 3,3 C 3,9 C 3,4 C 83 % 1025,0 hPa 0,0 l/m 0 min 0 min 181 W/m 9,7 km/h (2 Bft) 95,74 %
08.04.2021 09:38 3,3 C 3,9 C 3,4 C 83 % 1025,0 hPa 0,0 l/m 0 min 0 min 181 W/m 6,4 km/h (2 Bft) 95,74 %
08.04.2021 09:40 3,4 C 3,9 C 3,4 C 83 % 1025,0 hPa 0,0 l/m 0 min 0 min 184 W/m 16,1 km/h (3 Bft) 97,83 %
08.04.2021 09:42 3,4 C 3,9 C 3,4 C 83 % 1025,1 hPa 0,0 l/m 0 min 0 min 196 W/m 16,1 km/h (3 Bft) 97,87 %
08.04.2021 09:44 3,5 C 4,4 C 3,4 C 82 % 1025,0 hPa 0,0 l/m 0 min 0 min 200 W/m 12,9 km/h (3 Bft) 100,00 %
08.04.2021 09:46 3,5 C 4,4 C 3,4 C 82 % 1025,1 hPa 0,0 l/m 0 min 0 min 203 W/m 6,4 km/h (2 Bft) 93,62 %
08.04.2021 09:48 3,6 C 5,0 C 3,9 C 82 % 1025,1 hPa 0,0 l/m 2 min 0 min 250 W/m 12,9 km/h (3 Bft) 97,87 %
08.04.2021 09:50 3,6 C 5,0 C 3,9 C 82 % 1025,1 hPa 0,0 l/m 2 min 0 min 234 W/m 9,7 km/h (2 Bft) 95,74 %
08.04.2021 09:52 3,8 C 5,6 C 3,9 C 81 % 1025,1 hPa 0,0 l/m 2 min 0 min 261 W/m 9,7 km/h (2 Bft) 93,48 %
08.04.2021 09:54 3,8 C 5,6 C 4,5 C 81 % 1025,1 hPa 0,0 l/m 2 min 0 min 263 W/m 9,7 km/h (2 Bft) 96,23 %
08.04.2021 09:56 3,9 C 5,6 C 4,5 C 80 % 1025,1 hPa 0,0 l/m 2 min 0 min 241 W/m 12,9 km/h (3 Bft) 95,74 %
08.04.2021 09:58 4,0 C 5,6 C 4,5 C 80 % 1025,1 hPa 0,0 l/m 2 min 0 min 243 W/m 12,9 km/h (3 Bft) 95,74 %
08.04.2021 10:00 4,0 C 5,0 C 4,5 C 79 % 1025,1 hPa 0,0 l/m 2 min 0 min 246 W/m 16,1 km/h (3 Bft) 95,74 %
08.04.2021 10:02 4,0 C 5,6 C 4,5 C 79 % 1025,1 hPa 0,0 l/m 2 min 0 min 255 W/m 9,7 km/h (2 Bft) 93,75 %
08.04.2021 10:04 4,1 C 5,6 C 4,5 C 79 % 1025,1 hPa 0,0 l/m 2 min 0 min 248 W/m 12,9 km/h (3 Bft) 93,48 %
08.04.2021 10:06 4,1 C 5,0 C 4,5 C 78 % 1025,1 hPa 0,0 l/m 2 min 0 min 251 W/m 12,9 km/h (3 Bft) 93,62 %
08.04.2021 10:08 4,3 C 5,6 C 4,5 C 78 % 1025,2 hPa 0,0 l/m 2 min 0 min 286 W/m 9,7 km/h (2 Bft) 93,62 %
08.04.2021 10:10 4,3 C 5,6 C 4,5 C 78 % 1025,2 hPa 0,0 l/m 2 min 0 min 313 W/m 16,1 km/h (3 Bft) 95,74 %
08.04.2021 10:12 4,4 C 6,1 C 5,0 C 77 % 1025,1 hPa 0,0 l/m 2 min 0 min 315 W/m 12,9 km/h (3 Bft) 93,62 %
08.04.2021 10:14 4,5 C 6,7 C 5,6 C 78 % 1025,1 hPa 0,0 l/m 2 min 0 min 329 W/m 12,9 km/h (3 Bft) 95,74 %
08.04.2021 10:16 4,5 C 6,7 C 5,6 C 77 % 1025,1 hPa 0,0 l/m 2 min 0 min 334 W/m 12,9 km/h (3 Bft) 95,65 %
08.04.2021 10:18 4,7 C 7,2 C 6,1 C 77 % 1025,2 hPa 0,0 l/m 2 min 0 min 343 W/m 9,7 km/h (2 Bft) 93,62 %
08.04.2021 10:20 4,8 C 7,2 C 6,1 C 76 % 1025,2 hPa 0,0 l/m 2 min 0 min 323 W/m 12,9 km/h (3 Bft) 95,74 %
08.04.2021 10:22 4,9 C 7,2 C 6,1 C 76 % 1025,1 hPa 0,0 l/m 2 min 0 min 257 W/m 12,9 km/h (3 Bft) 93,62 %
08.04.2021 10:24 4,9 C 6,1 C 5,6 C 75 % 1025,2 hPa 0,0 l/m 0 min 0 min 251 W/m 12,9 km/h (3 Bft) 95,74 %
08.04.2021 10:26 4,9 C 6,1 C 5,0 C 75 % 1025,3 hPa 0,0 l/m 0 min 0 min 254 W/m 12,9 km/h (3 Bft) 95,74 %
08.04.2021 10:28 4,9 C 6,1 C 5,6 C 75 % 1025,3 hPa 0,0 l/m 2 min 0 min 287 W/m 9,7 km/h (2 Bft) 95,65 %
08.04.2021 10:30 4,9 C 6,7 C 5,6 C 76 % 1025,2 hPa 0,0 l/m 2 min 0 min 319 W/m 16,1 km/h (3 Bft) 91,89 %
08.04.2021 10:32 5,0 C 6,7 C 5,6 C 74 % 1025,1 hPa 0,0 l/m 2 min 0 min 321 W/m 22,5 km/h (4 Bft) 95,74 %
08.04.2021 10:34 5,0 C 6,7 C 6,1 C 74 % 1025,2 hPa 0,0 l/m 2 min 0 min 363 W/m 12,9 km/h (3 Bft) 95,74 %
08.04.2021 10:36 5,1 C 7,2 C 6,1 C 74 % 1025,2 hPa 0,0 l/m 2 min 0 min 351 W/m 12,9 km/h (3 Bft) 97,87 %
08.04.2021 10:38 5,1 C 7,2 C 6,1 C 73 % 1025,2 hPa 0,0 l/m 2 min 0 min 345 W/m 16,1 km/h (3 Bft) 95,83 %
08.04.2021 10:40 5,2 C 6,7 C 6,1 C 73 % 1025,3 hPa 0,0 l/m 2 min 0 min 306 W/m 12,9 km/h (3 Bft) 95,74 %
08.04.2021 10:42 5,2 C 6,7 C 6,1 C 72 % 1025,3 hPa 0,0 l/m 2 min 0 min 311 W/m 6,4 km/h (2 Bft) 95,74 %
08.04.2021 10:44 5,3 C 7,2 C 6,1 C 73 % 1025,3 hPa 0,0 l/m 2 min 0 min 342 W/m 6,4 km/h (2 Bft) 95,65 %
08.04.2021 10:46 5,3 C 6,7 C 6,1 C 72 % 1025,3 hPa 0,0 l/m 2 min 0 min 306 W/m 16,1 km/h (3 Bft) 95,74 %
08.04.2021 10:48 5,4 C 7,2 C 6,1 C 73 % 1025,3 hPa 0,0 l/m 2 min 0 min 334 W/m 3,2 km/h (1 Bft) 95,74 %
08.04.2021 10:50 5,5 C 7,2 C 6,1 C 72 % 1025,3 hPa 0,0 l/m 2 min 0 min 316 W/m 16,1 km/h (3 Bft) 91,49 %
08.04.2021 10:52 5,5 C 7,8 C 7,3 C 72 % 1025,3 hPa 0,0 l/m 2 min 0 min 309 W/m 12,9 km/h (3 Bft) 95,74 %
08.04.2021 10:54 5,6 C 7,8 C 7,3 C 70 % 1025,3 hPa 0,0 l/m 2 min 0 min 291 W/m 12,9 km/h (3 Bft) 95,65 %
08.04.2021 10:56 5,6 C 8,3 C 7,3 C 70 % 1025,2 hPa 0,0 l/m 0 min 0 min 278 W/m 9,7 km/h (2 Bft) 95,74 %
08.04.2021 10:58 5,7 C 8,3 C 7,3 C 70 % 1025,2 hPa 0,0 l/m 2 min 0 min 567 W/m 16,1 km/h (3 Bft) 93,62 %
08.04.2021 11:00 5,7 C 8,3 C 7,8 C 69 % 1025,2 hPa 0,0 l/m 2 min 0 min 442 W/m 16,1 km/h (3 Bft) 93,62 %
08.04.2021 11:02 5,8 C 8,9 C 8,4 C 68 % 1025,2 hPa 0,0 l/m 2 min 0 min 452 W/m 16,1 km/h (3 Bft) 95,83 %
08.04.2021 11:04 5,9 C 9,4 C 8,9 C 70 % 1025,2 hPa 0,0 l/m 2 min 0 min 709 W/m 12,9 km/h (3 Bft) 95,74 %
08.04.2021 11:06 6,1 C 9,4 C 8,9 C 70 % 1025,2 hPa 0,0 l/m 2 min 0 min 639 W/m 12,9 km/h (3 Bft) 95,74 %
08.04.2021 11:08 6,2 C 8,9 C 8,4 C 68 % 1025,3 hPa 0,0 l/m 2 min 0 min 437 W/m 12,9 km/h (3 Bft) 91,84 %
08.04.2021 11:10 6,1 C 8,9 C 7,8 C 67 % 1025,2 hPa 0,0 l/m 2 min 0 min 424 W/m 12,9 km/h (3 Bft) 95,74 %
08.04.2021 11:12 6,1 C 8,3 C 7,8 C 66 % 1025,2 hPa 0,0 l/m 2 min 0 min 425 W/m 22,5 km/h (4 Bft) 97,87 %
08.04.2021 11:14 6,0 C 8,3 C 7,3 C 65 % 1025,2 hPa 0,0 l/m 2 min 0 min 363 W/m 16,1 km/h (3 Bft) 97,87 %
08.04.2021 11:16 6,1 C 8,3 C 7,3 C 66 % 1025,3 hPa 0,0 l/m 2 min 0 min 393 W/m 16,1 km/h (3 Bft) 93,62 %
08.04.2021 11:18 6,1 C 8,3 C 7,8 C 65 % 1025,3 hPa 0,0 l/m 2 min 0 min 427 W/m 12,9 km/h (3 Bft) 95,65 %
08.04.2021 11:20 6,2 C 8,3 C 7,8 C 65 % 1025,2 hPa 0,0 l/m 2 min 0 min 527 W/m 16,1 km/h (3 Bft) 97,87 %
08.04.2021 11:22 6,4 C 8,9 C 7,8 C 66 % 1025,3 hPa 0,0 l/m 2 min 0 min 521 W/m 16,1 km/h (3 Bft) 97,87 %
08.04.2021 11:24 6,4 C 8,3 C 7,3 C 64 % 1025,3 hPa 0,0 l/m 2 min 0 min 447 W/m 22,5 km/h (4 Bft) 97,87 %
08.04.2021 11:26 6,5 C 8,9 C 7,8 C 63 % 1025,3 hPa 0,0 l/m 2 min 0 min 455 W/m 22,5 km/h (4 Bft) 95,74 %
08.04.2021 11:28 6,5 C 8,9 C 7,8 C 63 % 1025,2 hPa 0,0 l/m 2 min 0 min 414 W/m 12,9 km/h (3 Bft) 97,83 %
08.04.2021 11:30 6,5 C 8,9 C 7,8 C 60 % 1025,2 hPa 0,0 l/m 2 min 0 min 426 W/m 22,5 km/h (4 Bft) 97,62 %
08.04.2021 11:32 6,4 C 8,3 C 7,8 C 61 % 1025,2 hPa 0,0 l/m 2 min 0 min 454 W/m 9,7 km/h (2 Bft) 97,92 %
08.04.2021 11:34 6,4 C 8,9 C 8,4 C 63 % 1025,2 hPa 0,0 l/m 2 min 0 min 494 W/m 12,9 km/h (3 Bft) 97,87 %
08.04.2021 11:36 6,5 C 9,4 C 9,5 C 61 % 1025,2 hPa 0,0 l/m 2 min 0 min 489 W/m 16,1 km/h (3 Bft) 95,74 %
08.04.2021 11:38 6,6 C 8,9 C 8,9 C 61 % 1025,1 hPa 0,0 l/m 2 min 0 min 521 W/m 16,1 km/h (3 Bft) 97,87 %
08.04.2021 11:40 6,6 C 8,9 C 8,4 C 61 % 1025,1 hPa 0,0 l/m 2 min 0 min 479 W/m 16,1 km/h (3 Bft) 97,87 %
08.04.2021 11:42 6,7 C 8,9 C 7,8 C 60 % 1025,1 hPa 0,0 l/m 2 min 0 min 425 W/m 12,9 km/h (3 Bft) 95,65 %
08.04.2021 11:44 6,8 C 9,4 C 7,8 C 60 % 1025,1 hPa 0,0 l/m 2 min 0 min 392 W/m 9,7 km/h (2 Bft) 97,87 %
08.04.2021 11:46 6,9 C 9,4 C 7,8 C 62 % 1025,1 hPa 0,0 l/m 2 min 0 min 411 W/m 16,1 km/h (3 Bft) 100,00 %
08.04.2021 11:48 6,9 C 8,9 C 7,8 C 61 % 1025,1 hPa 0,0 l/m 2 min 0 min 413 W/m 19,3 km/h (3 Bft) 100,00 %
08.04.2021 11:50 6,7 C 8,3 C 7,3 C 61 % 1025,1 hPa 0,0 l/m 2 min 0 min 361 W/m 19,3 km/h (3 Bft) 100,00 %
08.04.2021 11:52 6,6 C 7,8 C 6,1 C 60 % 1025,0 hPa 0,0 l/m 0 min 0 min 270 W/m 16,1 km/h (3 Bft) 97,87 %
08.04.2021 11:54 6,4 C 7,2 C 5,6 C 58 % 1025,1 hPa 0,0 l/m 0 min 0 min 272 W/m 22,5 km/h (4 Bft) 100,00 %
08.04.2021 11:56 6,3 C 7,2 C 5,6 C 59 % 1025,0 hPa 0,0 l/m 0 min 0 min 306 W/m 12,9 km/h (3 Bft) 100,00 %
08.04.2021 11:58 6,3 C 7,2 C 5,6 C 59 % 1025,1 hPa 0,0 l/m 0 min 0 min 303 W/m 16,1 km/h (3 Bft) 97,87 %
08.04.2021 12:00 6,3 C 7,2 C 5,0 C 58 % 1025,1 hPa 0,0 l/m 0 min 0 min 253 W/m 12,9 km/h (3 Bft) 97,87 %
08.04.2021 12:02 6,3 C 7,2 C 5,0 C 58 % 1025,0 hPa 0,0 l/m 0 min 0 min 241 W/m 19,3 km/h (3 Bft) 95,83 %
08.04.2021 12:04 6,3 C 7,2 C 5,0 C 59 % 1025,0 hPa 0,0 l/m 0 min 0 min 256 W/m 22,5 km/h (4 Bft) 97,87 %
08.04.2021 12:08 6,3 C 7,2 C 5,0 C 59 % 1025,0 hPa 0,0 l/m 0 min 0 min 282 W/m 16,1 km/h (3 Bft) 97,92 %
08.04.2021 12:10 6,4 C 7,2 C 5,0 C 59 % 1024,9 hPa 0,0 l/m 0 min 0 min 312 W/m 12,9 km/h (3 Bft) 95,74 %
08.04.2021 12:12 6,4 C 7,2 C 5,6 C 60 % 1024,9 hPa 0,0 l/m 0 min 0 min 304 W/m 6,4 km/h (2 Bft) 97,87 %
08.04.2021 12:14 6,5 C 7,2 C 5,6 C 60 % 1024,9 hPa 0,0 l/m 0 min 0 min 295 W/m 16,1 km/h (3 Bft) 97,87 %
08.04.2021 12:16 6,4 C 7,2 C 5,0 C 59 % 1025,0 hPa 0,0 l/m 0 min 0 min 275 W/m 12,9 km/h (3 Bft) 97,83 %
08.04.2021 12:18 6,3 C 7,2 C 5,0 C 58 % 1024,9 hPa 0,0 l/m 0 min 0 min 278 W/m 19,3 km/h (3 Bft) 97,87 %
08.04.2021 12:20 6,3 C 7,2 C 5,0 C 60 % 1024,9 hPa 0,0 l/m 0 min 0 min 290 W/m 6,4 km/h (2 Bft) 95,74 %
08.04.2021 12:22 6,4 C 7,2 C 5,0 C 60 % 1024,9 hPa 0,0 l/m 0 min 0 min 294 W/m 19,3 km/h (3 Bft) 95,74 %
08.04.2021 12:24 6,3 C 7,2 C 5,0 C 58 % 1024,9 hPa 0,0 l/m 0 min 0 min 290 W/m 25,7 km/h (4 Bft) 97,87 %
08.04.2021 12:26 6,3 C 7,2 C 5,0 C 59 % 1024,9 hPa 0,0 l/m 0 min 0 min 282 W/m 19,3 km/h (3 Bft) 97,83 %
08.04.2021 12:28 6,3 C 7,2 C 4,5 C 59 % 1025,0 hPa 0,0 l/m 0 min 0 min 281 W/m 19,3 km/h (3 Bft) 95,74 %
08.04.2021 12:30 6,3 C 7,2 C 4,5 C 60 % 1024,9 hPa 0,0 l/m 0 min 0 min 283 W/m 16,1 km/h (3 Bft) 97,92 %
08.04.2021 12:32 6,4 C 7,2 C 4,5 C 61 % 1025,0 hPa 0,0 l/m 0 min 0 min 278 W/m 6,4 km/h (2 Bft) 97,87 %
08.04.2021 12:34 6,4 C 7,2 C 4,5 C 59 % 1024,9 hPa 0,0 l/m 0 min 0 min 274 W/m 12,9 km/h (3 Bft) 97,87 %
08.04.2021 12:36 6,4 C 7,2 C 4,5 C 59 % 1024,9 hPa 0,0 l/m 0 min 0 min 285 W/m 16,1 km/h (3 Bft) 100,00 %
08.04.2021 12:38 6,3 C 7,2 C 4,5 C 59 % 1024,9 hPa 0,0 l/m 0 min 0 min 300 W/m 12,9 km/h (3 Bft) 97,87 %
08.04.2021 12:40 6,3 C 7,2 C 4,5 C 60 % 1024,9 hPa 0,0 l/m 0 min 0 min 316 W/m 9,7 km/h (2 Bft) 97,87 %
08.04.2021 12:42 6,4 C 7,2 C 5,0 C 60 % 1025,0 hPa 0,0 l/m 0 min 0 min 318 W/m 16,1 km/h (3 Bft) 97,87 %
08.04.2021 12:44 6,5 C 7,2 C 5,0 C 60 % 1024,9 hPa 0,0 l/m 0 min 0 min 313 W/m 12,9 km/h (3 Bft) 100,00 %
08.04.2021 12:46 6,5 C 7,8 C 5,0 C 60 % 1025,0 hPa 0,0 l/m 0 min 0 min 302 W/m 6,4 km/h (2 Bft) 100,00 %
08.04.2021 12:48 6,5 C 7,2 C 5,0 C 59 % 1024,9 hPa 0,0 l/m 0 min 0 min 295 W/m 16,1 km/h (3 Bft) 100,00 %
08.04.2021 12:50 6,5 C 7,2 C 5,0 C 59 % 1024,9 hPa 0,0 l/m 0 min 0 min 305 W/m 16,1 km/h (3 Bft) 100,00 %
08.04.2021 12:52 6,5 C 7,2 C 5,0 C 59 % 1024,9 hPa 0,0 l/m 0 min 0 min 320 W/m 25,7 km/h (4 Bft) 100,00 %
08.04.2021 12:54 6,4 C 7,2 C 5,0 C 57 % 1024,9 hPa 0,0 l/m 0 min 0 min 344 W/m 22,5 km/h (4 Bft) 100,00 %
08.04.2021 12:56 6,5 C 7,8 C 6,1 C 58 % 1025,0 hPa 0,0 l/m 2 min 0 min 364 W/m 12,9 km/h (3 Bft) 100,00 %
08.04.2021 12:58 6,8 C 9,4 C 8,9 C 59 % 1024,9 hPa 0,0 l/m 2 min 0 min 832 W/m 19,3 km/h (3 Bft) 97,87 %
08.04.2021 13:00 7,2 C 11,1 C 10,0 C 57 % 1025,0 hPa 0,0 l/m 2 min 0 min 989 W/m 16,1 km/h (3 Bft) 100,00 %
08.04.2021 13:02 7,4 C 11,1 C 10,0 C 57 % 1024,9 hPa 0,0 l/m 2 min 0 min 988 W/m 19,3 km/h (3 Bft) 100,00 %
08.04.2021 13:04 7,3 C 10,6 C 8,9 C 54 % 1024,9 hPa 0,0 l/m 2 min 0 min 988 W/m 19,3 km/h (3 Bft) 100,00 %
08.04.2021 13:06 7,1 C 9,4 C 7,8 C 54 % 1024,9 hPa 0,0 l/m 2 min 0 min 484 W/m 29,0 km/h (5 Bft) 97,87 %
08.04.2021 13:08 7,0 C 9,4 C 7,3 C 54 % 1024,9 hPa 0,0 l/m 2 min 0 min 422 W/m 19,3 km/h (3 Bft) 100,00 %
08.04.2021 13:10 6,9 C 8,9 C 6,7 C 55 % 1024,9 hPa 0,0 l/m 2 min 0 min 387 W/m 32,2 km/h (5 Bft) 97,87 %
08.04.2021 13:12 6,9 C 8,3 C 6,1 C 55 % 1024,9 hPa 0,0 l/m 2 min 0 min 353 W/m 16,1 km/h (3 Bft) 100,00 %
08.04.2021 13:14 7,0 C 8,3 C 6,1 C 56 % 1024,9 hPa 0,0 l/m 0 min 0 min 340 W/m 19,3 km/h (3 Bft) 100,00 %
08.04.2021 13:16 7,1 C 8,3 C 6,1 C 57 % 1024,9 hPa 0,0 l/m 0 min 0 min 335 W/m 9,7 km/h (2 Bft) 100,00 %
08.04.2021 13:18 7,1 C 8,3 C 6,1 C 58 % 1024,9 hPa 0,0 l/m 0 min 0 min 339 W/m 25,7 km/h (4 Bft) 100,00 %
08.04.2021 13:20 7,1 C 8,3 C 6,1 C 56 % 1024,9 hPa 0,0 l/m 2 min 0 min 363 W/m 22,5 km/h (4 Bft) 100,00 %
08.04.2021 13:22 7,0 C 8,3 C 6,1 C 55 % 1024,9 hPa 0,0 l/m 2 min 0 min 377 W/m 16,1 km/h (3 Bft) 100,00 %
08.04.2021 13:24 7,0 C 8,3 C 6,1 C 57 % 1024,9 hPa 0,0 l/m 2 min 0 min 370 W/m 9,7 km/h (2 Bft) 100,00 %
08.04.2021 13:26 7,0 C 8,3 C 6,1 C 55 % 1024,9 hPa 0,0 l/m 0 min 0 min 340 W/m 16,1 km/h (3 Bft) 100,00 %
08.04.2021 13:28 6,9 C 8,3 C 6,1 C 56 % 1024,8 hPa 0,0 l/m 0 min 0 min 327 W/m 12,9 km/h (3 Bft) 100,00 %
08.04.2021 13:30 6,9 C 7,8 C 5,6 C 55 % 1024,9 hPa 0,0 l/m 0 min 0 min 330 W/m 29,0 km/h (5 Bft) 100,00 %
08.04.2021 13:32 7,0 C 8,3 C 5,6 C 56 % 1024,8 hPa 0,0 l/m 0 min 0 min 335 W/m 16,1 km/h (3 Bft) 97,92 %
08.04.2021 13:34 6,9 C 7,8 C 5,6 C 56 % 1024,9 hPa 0,0 l/m 0 min 0 min 347 W/m 12,9 km/h (3 Bft) 95,74 %
08.04.2021 13:36 7,0 C 8,3 C 5,6 C 58 % 1024,8 hPa 0,0 l/m 2 min 0 min 355 W/m 6,4 km/h (2 Bft) 97,87 %
08.04.2021 13:38 7,1 C 8,9 C 6,1 C 58 % 1024,8 hPa 0,0 l/m 0 min 0 min 351 W/m 9,7 km/h (2 Bft) 97,83 %
08.04.2021 13:40 7,3 C 8,9 C 6,1 C 59 % 1024,7 hPa 0,0 l/m 0 min 0 min 353 W/m 12,9 km/h (3 Bft) 97,87 %
08.04.2021 13:42 7,3 C 8,3 C 6,1 C 57 % 1024,8 hPa 0,0 l/m 0 min 0 min 344 W/m 25,7 km/h (4 Bft) 97,87 %
08.04.2021 13:44 7,3 C 8,3 C 6,1 C 57 % 1024,8 hPa 0,0 l/m 2 min 0 min 354 W/m 12,9 km/h (3 Bft) 97,87 %
08.04.2021 13:46 7,2 C 8,3 C 6,1 C 55 % 1024,8 hPa 0,0 l/m 2 min 0 min 365 W/m 19,3 km/h (3 Bft) 97,87 %
08.04.2021 13:48 7,1 C 8,3 C 6,1 C 55 % 1024,7 hPa 0,0 l/m 0 min 0 min 330 W/m 22,5 km/h (4 Bft) 97,87 %
08.04.2021 13:50 7,0 C 8,3 C 5,6 C 55 % 1024,7 hPa 0,0 l/m 0 min 0 min 313 W/m 19,3 km/h (3 Bft) 97,83 %
08.04.2021 13:52 7,0 C 8,3 C 5,6 C 56 % 1024,7 hPa 0,0 l/m 0 min 0 min 314 W/m 19,3 km/h (3 Bft) 95,74 %
08.04.2021 13:54 7,0 C 8,3 C 5,6 C 56 % 1024,7 hPa 0,0 l/m 0 min 0 min 340 W/m 16,1 km/h (3 Bft) 97,87 %
08.04.2021 13:56 7,0 C 8,3 C 5,6 C 57 % 1024,7 hPa 0,0 l/m 2 min 0 min 398 W/m 16,1 km/h (3 Bft) 95,74 %
08.04.2021 13:58 7,1 C 8,3 C 5,6 C 57 % 1024,7 hPa 0,0 l/m 2 min 0 min 415 W/m 19,3 km/h (3 Bft) 97,87 %
08.04.2021 14:00 7,1 C 8,3 C 5,6 C 57 % 1024,7 hPa 0,0 l/m 2 min 0 min 384 W/m 25,7 km/h (4 Bft) 97,87 %
08.04.2021 14:02 7,3 C 8,9 C 6,1 C 57 % 1024,6 hPa 0,0 l/m 2 min 0 min 413 W/m 12,9 km/h (3 Bft) 97,87 %
08.04.2021 14:04 7,4 C 9,4 C 6,1 C 57 % 1024,6 hPa 0,0 l/m 2 min 0 min 485 W/m 12,9 km/h (3 Bft) 97,87 %
08.04.2021 14:06 7,4 C 8,9 C 6,1 C 56 % 1024,7 hPa 0,0 l/m 2 min 0 min 390 W/m 22,5 km/h (4 Bft) 97,87 %
08.04.2021 14:08 7,4 C 8,3 C 6,1 C 55 % 1024,6 hPa 0,0 l/m 2 min 0 min 361 W/m 19,3 km/h (3 Bft) 95,74 %
08.04.2021 14:10 7,4 C 8,3 C 6,1 C 56 % 1024,6 hPa 0,0 l/m 0 min 0 min 342 W/m 9,7 km/h (2 Bft) 95,74 %
08.04.2021 14:12 7,4 C 8,9 C 6,1 C 56 % 1024,6 hPa 0,0 l/m 0 min 0 min 309 W/m 6,4 km/h (2 Bft) 95,65 %
08.04.2021 14:14 7,4 C 8,3 C 6,1 C 55 % 1024,6 hPa 0,0 l/m 0 min 0 min 293 W/m 25,7 km/h (4 Bft) 97,87 %
08.04.2021 14:16 7,4 C 7,8 C 5,6 C 54 % 1024,6 hPa 0,0 l/m 0 min 0 min 281 W/m 22,5 km/h (4 Bft) 95,74 %
08.04.2021 14:18 7,4 C 8,3 C 5,6 C 56 % 1024,6 hPa 0,0 l/m 0 min 0 min 287 W/m 19,3 km/h (3 Bft) 95,74 %
08.04.2021 14:20 7,4 C 8,3 C 5,6 C 58 % 1024,5 hPa 0,0 l/m 0 min 0 min 324 W/m 16,1 km/h (3 Bft) 95,74 %
08.04.2021 14:22 7,5 C 8,9 C 6,1 C 57 % 1024,5 hPa 0,0 l/m 2 min 0 min 380 W/m 12,9 km/h (3 Bft) 97,87 %
08.04.2021 14:24 7,5 C 8,9 C 6,1 C 57 % 1024,4 hPa 0,0 l/m 2 min 0 min 394 W/m 25,7 km/h (4 Bft) 97,83 %
08.04.2021 14:26 7,5 C 9,4 C 6,1 C 56 % 1024,4 hPa 0,0 l/m 2 min 0 min 417 W/m 16,1 km/h (3 Bft) 97,87 %
08.04.2021 14:28 7,6 C 10,6 C 6,7 C 56 % 1024,4 hPa 0,0 l/m 2 min 0 min 428 W/m 12,9 km/h (3 Bft) 95,74 %
08.04.2021 14:30 7,8 C 11,1 C 6,7 C 56 % 1024,4 hPa 0,0 l/m 2 min 0 min 673 W/m 19,3 km/h (3 Bft) 95,74 %
08.04.2021 14:32 7,9 C 11,1 C 6,7 C 56 % 1024,4 hPa 0,0 l/m 2 min 0 min 833 W/m 19,3 km/h (3 Bft) 97,87 %
08.04.2021 14:34 8,0 C 10,0 C 6,1 C 54 % 1024,5 hPa 0,0 l/m 2 min 0 min 388 W/m 25,7 km/h (4 Bft) 97,87 %
08.04.2021 14:36 7,9 C 9,4 C 6,1 C 53 % 1024,3 hPa 0,0 l/m 2 min 0 min 370 W/m 22,5 km/h (4 Bft) 97,83 %
08.04.2021 14:38 7,9 C 10,0 C 6,1 C 54 % 1024,3 hPa 0,0 l/m 2 min 0 min 443 W/m 22,5 km/h (4 Bft) 97,87 %
08.04.2021 14:40 7,9 C 10,0 C 6,1 C 54 % 1024,3 hPa 0,0 l/m 2 min 0 min 456 W/m 32,2 km/h (5 Bft) 95,74 %
08.04.2021 14:42 7,9 C 10,0 C 6,1 C 55 % 1024,3 hPa 0,0 l/m 2 min 0 min 451 W/m 16,1 km/h (3 Bft) 97,87 %
08.04.2021 14:44 8,0 C 10,6 C 6,7 C 56 % 1024,3 hPa 0,0 l/m 2 min 0 min 422 W/m 12,9 km/h (3 Bft) 97,87 %
08.04.2021 14:46 8,0 C 9,4 C 6,7 C 55 % 1024,2 hPa 0,0 l/m 0 min 0 min 336 W/m 16,1 km/h (3 Bft) 93,48 %
08.04.2021 14:48 8,0 C 9,4 C 6,1 C 54 % 1024,2 hPa 0,0 l/m 2 min 0 min 339 W/m 22,5 km/h (4 Bft) 97,87 %
08.04.2021 14:50 8,0 C 8,9 C 6,1 C 55 % 1024,2 hPa 0,0 l/m 2 min 0 min 341 W/m 16,1 km/h (3 Bft) 97,87 %
08.04.2021 14:52 8,0 C 8,9 C 6,1 C 56 % 1024,3 hPa 0,0 l/m 0 min 0 min 334 W/m 16,1 km/h (3 Bft) 95,74 %
08.04.2021 14:54 8,0 C 9,4 C 6,7 C 57 % 1024,2 hPa 0,0 l/m 2 min 0 min 342 W/m 16,1 km/h (3 Bft) 97,87 %
08.04.2021 14:56 8,0 C 9,4 C 6,7 C 56 % 1024,2 hPa 0,0 l/m 2 min 0 min 355 W/m 12,9 km/h (3 Bft) 97,87 %
08.04.2021 14:58 8,1 C 10,0 C 6,7 C 56 % 1024,1 hPa 0,0 l/m 2 min 0 min 367 W/m 16,1 km/h (3 Bft) 97,83 %
08.04.2021 15:00 8,3 C 10,6 C 6,7 C 55 % 1024,1 hPa 0,0 l/m 2 min 0 min 435 W/m 16,1 km/h (3 Bft) 97,87 %
08.04.2021 15:02 8,3 C 10,0 C 6,7 C 54 % 1024,1 hPa 0,0 l/m 2 min 0 min 393 W/m 25,7 km/h (4 Bft) 94,29 %
08.04.2021 15:04 8,3 C 9,4 C 6,7 C 54 % 1024,0 hPa 0,0 l/m 2 min 0 min 388 W/m 22,5 km/h (4 Bft) 97,87 %
08.04.2021 15:06 8,3 C 9,4 C 6,7 C 55 % 1024,0 hPa 0,0 l/m 2 min 0 min 348 W/m 16,1 km/h (3 Bft) 98,33 %
08.04.2021 15:08 8,3 C 9,4 C 6,1 C 55 % 1024,0 hPa 0,0 l/m 2 min 0 min 345 W/m 29,0 km/h (5 Bft) 100,00 %
08.04.2021 15:10 8,3 C 9,4 C 6,7 C 54 % 1024,0 hPa 0,0 l/m 2 min 0 min 388 W/m 12,9 km/h (3 Bft) 100,00 %
08.04.2021 15:12 8,2 C 9,4 C 6,1 C 54 % 1024,0 hPa 0,0 l/m 2 min 0 min 398 W/m 16,1 km/h (3 Bft) 95,74 %
08.04.2021 15:14 8,1 C 9,4 C 6,1 C 54 % 1023,9 hPa 0,0 l/m 0 min 0 min 321 W/m 16,1 km/h (3 Bft) 100,00 %
08.04.2021 15:16 8,1 C 9,4 C 6,1 C 55 % 1023,9 hPa 0,0 l/m 0 min 0 min 288 W/m 12,9 km/h (3 Bft) 100,00 %
08.04.2021 15:18 8,2 C 9,4 C 6,1 C 55 % 1023,9 hPa 0,0 l/m 0 min 0 min 323 W/m 25,7 km/h (4 Bft) 100,00 %
08.04.2021 15:20 8,1 C 9,4 C 6,1 C 53 % 1023,9 hPa 0,0 l/m 2 min 0 min 369 W/m 19,3 km/h (3 Bft) 97,87 %
08.04.2021 15:22 8,1 C 9,4 C 6,1 C 53 % 1023,9 hPa 0,0 l/m 2 min 0 min 370 W/m 22,5 km/h (4 Bft) 97,87 %
08.04.2021 15:24 8,1 C 9,4 C 6,1 C 53 % 1023,9 hPa 0,0 l/m 2 min 0 min 321 W/m 32,2 km/h (5 Bft) 97,87 %
08.04.2021 15:26 8,1 C 9,4 C 6,1 C 54 % 1023,9 hPa 0,0 l/m 0 min 0 min 310 W/m 19,3 km/h (3 Bft) 97,83 %
08.04.2021 15:28 8,2 C 10,0 C 6,1 C 54 % 1023,8 hPa 0,0 l/m 2 min 0 min 353 W/m 16,1 km/h (3 Bft) 97,87 %
08.04.2021 15:30 8,3 C 10,0 C 6,1 C 55 % 1023,8 hPa 0,0 l/m 2 min 0 min 356 W/m 9,7 km/h (2 Bft) 97,87 %
08.04.2021 15:32 8,3 C 10,0 C 6,1 C 54 % 1023,7 hPa 0,0 l/m 2 min 0 min 344 W/m 12,9 km/h (3 Bft) 96,23 %
08.04.2021 15:34 8,3 C 10,6 C 6,1 C 53 % 1023,7 hPa 0,0 l/m 2 min 0 min 371 W/m 19,3 km/h (3 Bft) 97,87 %
08.04.2021 15:36 8,3 C 10,6 C 6,1 C 53 % 1023,7 hPa 0,0 l/m 2 min 0 min 371 W/m 22,5 km/h (4 Bft) 97,87 %
08.04.2021 15:38 8,4 C 12,2 C 6,7 C 54 % 1023,6 hPa 0,0 l/m 2 min 0 min 801 W/m 22,5 km/h (4 Bft) 95,74 %
08.04.2021 15:40 8,7 C 12,2 C 6,7 C 55 % 1023,6 hPa 0,0 l/m 2 min 0 min 724 W/m 19,3 km/h (3 Bft) 95,74 %
08.04.2021 15:42 8,8 C 11,7 C 6,7 C 52 % 1023,6 hPa 0,0 l/m 2 min 0 min 346 W/m 29,0 km/h (5 Bft) 97,87 %
08.04.2021 15:44 8,8 C 12,8 C 6,7 C 52 % 1023,6 hPa 0,0 l/m 2 min 0 min 764 W/m 29,0 km/h (5 Bft) 97,92 %
08.04.2021 15:46 8,9 C 12,2 C 6,1 C 52 % 1023,7 hPa 0,0 l/m 2 min 0 min 781 W/m 29,0 km/h (5 Bft) 97,87 %
08.04.2021 15:48 8,9 C 12,2 C 6,1 C 51 % 1023,5 hPa 0,0 l/m 2 min 0 min 425 W/m 22,5 km/h (4 Bft) 97,87 %
08.04.2021 15:50 8,9 C 12,8 C 6,1 C 53 % 1023,6 hPa 0,0 l/m 2 min 0 min 746 W/m 12,9 km/h (3 Bft) 97,83 %
08.04.2021 15:52 9,0 C 13,9 C 6,7 C 54 % 1023,5 hPa 0,0 l/m 2 min 0 min 796 W/m 16,1 km/h (3 Bft) 97,87 %
08.04.2021 15:54 9,1 C 14,4 C 6,7 C 53 % 1023,5 hPa 0,0 l/m 2 min 0 min 787 W/m 16,1 km/h (3 Bft) 97,87 %
08.04.2021 15:56 9,3 C 14,4 C 6,7 C 52 % 1023,6 hPa 0,0 l/m 2 min 0 min 764 W/m 35,4 km/h (5 Bft) 97,87 %
08.04.2021 15:58 9,3 C 12,8 C 6,7 C 52 % 1023,4 hPa 0,0 l/m 2 min 0 min 660 W/m 19,3 km/h (3 Bft) 97,87 %
08.04.2021 16:00 9,3 C 12,2 C 6,7 C 53 % 1023,5 hPa 0,0 l/m 0 min 0 min 281 W/m 12,9 km/h (3 Bft) 95,65 %
08.04.2021 16:02 9,3 C 12,2 C 6,7 C 53 % 1023,5 hPa 0,0 l/m 2 min 0 min 327 W/m 16,1 km/h (3 Bft) 97,92 %
08.04.2021 16:04 9,3 C 13,9 C 6,7 C 53 % 1023,5 hPa 0,0 l/m 2 min 0 min 514 W/m 12,9 km/h (3 Bft) 97,87 %
08.04.2021 16:06 9,4 C 15,0 C 7,3 C 54 % 1023,4 hPa 0,0 l/m 2 min 0 min 639 W/m 12,9 km/h (3 Bft) 97,87 %
08.04.2021 16:08 9,5 C 15,6 C 7,3 C 54 % 1023,4 hPa 0,0 l/m 2 min 0 min 722 W/m 12,9 km/h (3 Bft) 95,83 %
08.04.2021 16:10 9,5 C 13,9 C 6,7 C 52 % 1023,4 hPa 0,0 l/m 2 min 0 min 481 W/m 25,7 km/h (4 Bft) 97,87 %
08.04.2021 16:12 9,4 C 13,9 C 6,7 C 51 % 1023,4 hPa 0,0 l/m 2 min 0 min 626 W/m 29,0 km/h (5 Bft) 97,83 %
08.04.2021 16:14 9,3 C 13,9 C 6,7 C 51 % 1023,3 hPa 0,0 l/m 2 min 0 min 741 W/m 25,7 km/h (4 Bft) 97,87 %
08.04.2021 16:16 9,3 C 13,9 C 6,7 C 51 % 1023,3 hPa 0,0 l/m 2 min 0 min 733 W/m 22,5 km/h (4 Bft) 93,62 %
08.04.2021 16:18 9,3 C 12,2 C 6,7 C 52 % 1023,3 hPa 0,0 l/m 2 min 0 min 323 W/m 22,5 km/h (4 Bft) 97,87 %
08.04.2021 16:20 9,3 C 13,9 C 6,7 C 54 % 1023,3 hPa 0,0 l/m 0 min 0 min 270 W/m 16,1 km/h (3 Bft) 95,74 %
08.04.2021 16:22 9,3 C 15,0 C 6,7 C 52 % 1023,3 hPa 0,0 l/m 2 min 0 min 705 W/m 12,9 km/h (3 Bft) 95,74 %
08.04.2021 16:24 9,3 C 12,8 C 6,7 C 53 % 1023,3 hPa 0,0 l/m 2 min 0 min 530 W/m 25,7 km/h (4 Bft) 93,48 %
08.04.2021 16:26 9,3 C 12,2 C 6,7 C 52 % 1023,2 hPa 0,0 l/m 0 min 0 min 242 W/m 22,5 km/h (4 Bft) 91,49 %
08.04.2021 16:28 9,1 C 12,8 C 6,1 C 52 % 1023,2 hPa 0,0 l/m 2 min 0 min 527 W/m 29,0 km/h (5 Bft) 95,74 %
08.04.2021 16:30 9,0 C 13,3 C 6,1 C 51 % 1023,2 hPa 0,0 l/m 2 min 0 min 688 W/m 25,7 km/h (4 Bft) 95,74 %
08.04.2021 16:32 9,1 C 14,4 C 6,7 C 52 % 1023,1 hPa 0,0 l/m 2 min 0 min 680 W/m 22,5 km/h (4 Bft) 95,83 %
08.04.2021 16:34 9,2 C 15,0 C 7,3 C 53 % 1023,1 hPa 0,0 l/m 2 min 0 min 666 W/m 19,3 km/h (3 Bft) 95,74 %
08.04.2021 16:36 9,3 C 13,9 C 7,3 C 52 % 1023,1 hPa 0,0 l/m 2 min 0 min 678 W/m 41,8 km/h (6 Bft) 95,65 %
08.04.2021 16:38 9,1 C 13,9 C 6,7 C 51 % 1023,0 hPa 0,0 l/m 2 min 0 min 661 W/m 32,2 km/h (5 Bft) 93,75 %
08.04.2021 16:40 9,1 C 14,4 C 7,3 C 53 % 1023,1 hPa 0,0 l/m 2 min 0 min 617 W/m 12,9 km/h (3 Bft) 95,74 %
08.04.2021 16:42 9,1 C 14,4 C 7,3 C 53 % 1023,0 hPa 0,0 l/m 2 min 0 min 603 W/m 32,2 km/h (5 Bft) 97,87 %
08.04.2021 16:44 9,3 C 13,9 C 7,3 C 54 % 1023,1 hPa 0,0 l/m 2 min 0 min 541 W/m 16,1 km/h (3 Bft) 97,83 %
08.04.2021 16:46 9,3 C 12,8 C 6,7 C 53 % 1023,0 hPa 0,0 l/m 2 min 0 min 312 W/m 12,9 km/h (3 Bft) 97,87 %
08.04.2021 16:48 9,3 C 13,3 C 6,7 C 54 % 1022,9 hPa 0,0 l/m 2 min 0 min 457 W/m 6,4 km/h (2 Bft) 95,74 %
08.04.2021 16:50 9,4 C 15,0 C 6,7 C 54 % 1022,9 hPa 0,0 l/m 2 min 0 min 591 W/m 16,1 km/h (3 Bft) 97,87 %
08.04.2021 16:52 9,5 C 14,4 C 7,3 C 53 % 1022,9 hPa 0,0 l/m 2 min 0 min 533 W/m 12,9 km/h (3 Bft) 97,87 %
08.04.2021 16:54 9,5 C 13,9 C 7,3 C 54 % 1022,8 hPa 0,0 l/m 2 min 0 min 466 W/m 6,4 km/h (2 Bft) 97,87 %
08.04.2021 16:56 9,5 C 15,0 C 7,3 C 54 % 1022,8 hPa 0,0 l/m 2 min 0 min 601 W/m 19,3 km/h (3 Bft) 95,65 %
08.04.2021 16:58 9,6 C 15,6 C 7,3 C 53 % 1022,8 hPa 0,0 l/m 2 min 0 min 611 W/m 12,9 km/h (3 Bft) 95,74 %
08.04.2021 17:00 9,6 C 15,6 C 7,3 C 54 % 1022,8 hPa 0,0 l/m 2 min 0 min 588 W/m 38,6 km/h (5 Bft) 97,87 %
08.04.2021 17:02 9,5 C 13,9 C 7,3 C 51 % 1022,7 hPa 0,0 l/m 2 min 0 min 573 W/m 32,2 km/h (5 Bft) 95,74 %
08.04.2021 17:04 9,4 C 12,2 C 6,7 C 52 % 1022,7 hPa 0,0 l/m 2 min 0 min 304 W/m 19,3 km/h (3 Bft) 95,74 %
08.04.2021 17:06 9,2 C 12,8 C 6,7 C 52 % 1022,8 hPa 0,0 l/m 2 min 0 min 353 W/m 19,3 km/h (3 Bft) 93,62 %
08.04.2021 17:08 9,1 C 12,2 C 6,7 C 53 % 1022,7 hPa 0,0 l/m 2 min 0 min 486 W/m 22,5 km/h (4 Bft) 97,83 %
08.04.2021 17:10 9,0 C 12,2 C 6,7 C 53 % 1022,7 hPa 0,0 l/m 2 min 0 min 340 W/m 22,5 km/h (4 Bft) 97,87 %
08.04.2021 17:12 8,9 C 11,7 C 6,1 C 52 % 1022,7 hPa 0,0 l/m 2 min 0 min 287 W/m 19,3 km/h (3 Bft) 95,74 %
08.04.2021 17:14 8,9 C 12,8 C 6,7 C 53 % 1022,7 hPa 0,0 l/m 2 min 0 min 417 W/m 16,1 km/h (3 Bft) 97,87 %
08.04.2021 17:16 9,0 C 12,8 C 6,7 C 55 % 1022,7 hPa 0,0 l/m 2 min 0 min 448 W/m 9,7 km/h (2 Bft) 95,74 %
08.04.2021 17:18 9,1 C 11,7 C 6,7 C 54 % 1022,6 hPa 0,0 l/m 2 min 0 min 302 W/m 29,0 km/h (5 Bft) 97,87 %
08.04.2021 17:20 9,0 C 11,7 C 6,7 C 54 % 1022,6 hPa 0,0 l/m 2 min 0 min 246 W/m 12,9 km/h (3 Bft) 97,83 %
08.04.2021 17:22 9,0 C 12,8 C 6,7 C 54 % 1022,7 hPa 0,0 l/m 2 min 0 min 444 W/m 22,5 km/h (4 Bft) 95,74 %
08.04.2021 17:24 9,0 C 12,2 C 6,7 C 53 % 1022,6 hPa 0,0 l/m 2 min 0 min 366 W/m 16,1 km/h (3 Bft) 97,87 %
08.04.2021 17:26 9,0 C 12,8 C 6,7 C 53 % 1022,6 hPa 0,0 l/m 2 min 0 min 385 W/m 16,1 km/h (3 Bft) 97,87 %
08.04.2021 17:28 9,0 C 13,3 C 6,7 C 53 % 1022,5 hPa 0,0 l/m 2 min 0 min 468 W/m 12,9 km/h (3 Bft) 97,87 %
08.04.2021 17:30 9,0 C 13,3 C 6,7 C 53 % 1022,5 hPa 0,0 l/m 2 min 0 min 453 W/m 29,0 km/h (5 Bft) 97,87 %
08.04.2021 17:32 9,0 C 13,3 C 6,7 C 54 % 1022,4 hPa 0,0 l/m 2 min 0 min 454 W/m 16,1 km/h (3 Bft) 97,14 %
08.04.2021 17:34 9,0 C 12,8 C 6,7 C 53 % 1022,5 hPa 0,0 l/m 2 min 0 min 448 W/m 19,3 km/h (3 Bft) 98,15 %
08.04.2021 17:36 9,1 C 13,3 C 6,7 C 54 % 1022,4 hPa 0,0 l/m 2 min 0 min 449 W/m 12,9 km/h (3 Bft) 97,83 %
08.04.2021 17:38 9,1 C 13,9 C 7,3 C 54 % 1022,5 hPa 0,0 l/m 2 min 0 min 450 W/m 12,9 km/h (3 Bft) 97,87 %
08.04.2021 17:40 9,2 C 12,8 C 6,7 C 54 % 1022,5 hPa 0,0 l/m 2 min 0 min 450 W/m 22,5 km/h (4 Bft) 95,74 %
08.04.2021 17:42 9,1 C 12,2 C 6,7 C 53 % 1022,4 hPa 0,0 l/m 2 min 0 min 376 W/m 25,7 km/h (4 Bft) 100,00 %
08.04.2021 17:44 9,1 C 12,2 C 6,7 C 54 % 1022,4 hPa 0,0 l/m 2 min 0 min 283 W/m 12,9 km/h (3 Bft) 100,00 %
08.04.2021 17:46 9,0 C 12,2 C 6,7 C 54 % 1022,2 hPa 0,0 l/m 2 min 0 min 336 W/m 16,1 km/h (3 Bft) 100,00 %
08.04.2021 17:48 9,0 C 12,2 C 6,7 C 55 % 1022,3 hPa 0,0 l/m 2 min 0 min 323 W/m 16,1 km/h (3 Bft) 100,00 %
08.04.2021 17:50 9,0 C 11,7 C 6,7 C 54 % 1022,3 hPa 0,0 l/m 2 min 0 min 283 W/m 16,1 km/h (3 Bft) 100,00 %
08.04.2021 17:52 8,9 C 11,1 C 6,1 C 54 % 1022,3 hPa 0,0 l/m 2 min 0 min 202 W/m 16,1 km/h (3 Bft) 100,00 %
08.04.2021 17:54 8,8 C 11,7 C 6,1 C 54 % 1022,2 hPa 0,0 l/m 2 min 0 min 286 W/m 12,9 km/h (3 Bft) 100,00 %
08.04.2021 17:56 8,9 C 12,8 C 6,1 C 54 % 1022,2 hPa 0,0 l/m 2 min 0 min 356 W/m 12,9 km/h (3 Bft) 100,00 %
08.04.2021 17:58 8,9 C 13,3 C 6,7 C 55 % 1022,2 hPa 0,0 l/m 2 min 0 min 339 W/m 12,9 km/h (3 Bft) 97,87 %
08.04.2021 18:00 9,0 C 12,2 C 6,7 C 56 % 1022,2 hPa 0,0 l/m 2 min 0 min 278 W/m 16,1 km/h (3 Bft) 97,87 %
08.04.2021 18:02 9,0 C 11,7 C 6,7 C 54 % 1022,2 hPa 0,0 l/m 2 min 0 min 198 W/m 19,3 km/h (3 Bft) 100,00 %
08.04.2021 18:04 8,9 C 11,1 C 6,1 C 54 % 1022,1 hPa 0,0 l/m 2 min 0 min 201 W/m 6,4 km/h (2 Bft) 100,00 %
08.04.2021 18:08 8,9 C 11,7 C 6,1 C 55 % 1022,1 hPa 0,0 l/m 4 min 0 min 198 W/m 9,7 km/h (2 Bft) 100,00 %
08.04.2021 18:10 8,9 C 12,2 C 6,1 C 55 % 1022,1 hPa 0,0 l/m 2 min 0 min 277 W/m 16,1 km/h (3 Bft) 100,00 %
08.04.2021 18:12 9,0 C 12,8 C 6,1 C 56 % 1022,1 hPa 0,0 l/m 2 min 0 min 280 W/m 12,9 km/h (3 Bft) 100,00 %
08.04.2021 18:14 9,0 C 12,2 C 6,7 C 55 % 1022,1 hPa 0,0 l/m 2 min 0 min 238 W/m 19,3 km/h (3 Bft) 100,00 %
08.04.2021 18:16 9,0 C 12,2 C 6,1 C 55 % 1022,1 hPa 0,0 l/m 2 min 0 min 235 W/m 16,1 km/h (3 Bft) 100,00 %
08.04.2021 18:18 8,9 C 12,2 C 6,1 C 55 % 1022,1 hPa 0,0 l/m 2 min 0 min 251 W/m 22,5 km/h (4 Bft) 100,00 %
08.04.2021 18:20 8,9 C 12,2 C 6,1 C 54 % 1022,1 hPa 0,0 l/m 2 min 0 min 255 W/m 19,3 km/h (3 Bft) 100,00 %
08.04.2021 18:22 8,8 C 11,7 C 6,1 C 53 % 1022,0 hPa 0,0 l/m 2 min 0 min 239 W/m 32,2 km/h (5 Bft) 100,00 %
08.04.2021 18:24 8,8 C 11,1 C 6,1 C 54 % 1022,0 hPa 0,0 l/m 2 min 0 min 215 W/m 25,7 km/h (4 Bft) 97,87 %
08.04.2021 18:26 8,7 C 10,6 C 6,1 C 53 % 1022,0 hPa 0,0 l/m 2 min 0 min 190 W/m 16,1 km/h (3 Bft) 100,00 %
08.04.2021 18:28 8,7 C 11,1 C 6,1 C 54 % 1022,0 hPa 0,0 l/m 2 min 0 min 179 W/m 12,9 km/h (3 Bft) 100,00 %
08.04.2021 18:30 8,7 C 11,7 C 6,1 C 55 % 1021,9 hPa 0,0 l/m 2 min 0 min 210 W/m 16,1 km/h (3 Bft) 100,00 %
08.04.2021 18:32 8,7 C 12,2 C 6,1 C 56 % 1021,9 hPa 0,0 l/m 2 min 0 min 221 W/m 9,7 km/h (2 Bft) 100,00 %
08.04.2021 18:34 8,7 C 12,2 C 6,1 C 55 % 1022,0 hPa 0,0 l/m 2 min 0 min 223 W/m 19,3 km/h (3 Bft) 100,00 %
08.04.2021 18:36 8,7 C 11,7 C 6,1 C 54 % 1022,0 hPa 0,0 l/m 2 min 0 min 204 W/m 22,5 km/h (4 Bft) 100,00 %
08.04.2021 18:38 8,7 C 11,7 C 6,1 C 54 % 1021,9 hPa 0,0 l/m 2 min 0 min 199 W/m 19,3 km/h (3 Bft) 97,87 %
08.04.2021 18:40 8,7 C 11,7 C 6,1 C 54 % 1021,9 hPa 0,0 l/m 2 min 0 min 191 W/m 19,3 km/h (3 Bft) 100,00 %
08.04.2021 18:42 8,6 C 11,1 C 6,1 C 54 % 1021,9 hPa 0,0 l/m 2 min 0 min 175 W/m 19,3 km/h (3 Bft) 100,00 %
08.04.2021 18:44 8,6 C 10,6 C 5,6 C 54 % 1021,9 hPa 0,0 l/m 2 min 0 min 168 W/m 29,0 km/h (5 Bft) 97,87 %
08.04.2021 18:46 8,5 C 10,6 C 5,6 C 54 % 1021,9 hPa 0,0 l/m 2 min 0 min 162 W/m 19,3 km/h (3 Bft) 97,83 %
08.04.2021 18:48 8,5 C 10,0 C 5,6 C 55 % 1021,8 hPa 0,0 l/m 2 min 0 min 154 W/m 19,3 km/h (3 Bft) 97,87 %
08.04.2021 18:50 8,4 C 9,4 C 5,6 C 54 % 1021,9 hPa 0,0 l/m 0 min 0 min 110 W/m 9,7 km/h (2 Bft) 95,74 %
08.04.2021 18:52 8,4 C 8,9 C 5,6 C 55 % 1021,8 hPa 0,0 l/m 0 min 0 min 77 W/m 16,1 km/h (3 Bft) 95,74 %
08.04.2021 18:54 8,4 C 8,9 C 5,6 C 55 % 1021,9 hPa 0,0 l/m 0 min 0 min 75 W/m 9,7 km/h (2 Bft) 95,74 %
08.04.2021 18:56 8,4 C 8,3 C 5,6 C 55 % 1021,8 hPa 0,0 l/m 0 min 0 min 74 W/m 19,3 km/h (3 Bft) 97,87 %
08.04.2021 18:58 8,4 C 8,3 C 5,6 C 55 % 1021,8 hPa 0,0 l/m 0 min 0 min 72 W/m 16,1 km/h (3 Bft) 97,83 %
08.04.2021 19:00 8,4 C 8,3 C 5,0 C 55 % 1021,8 hPa 0,0 l/m 0 min 0 min 69 W/m 19,3 km/h (3 Bft) 54,35 %
08.04.2021 19:02 8,4 C 7,8 C 5,0 C 55 % 1021,8 hPa 0,0 l/m 0 min 0 min 64 W/m 19,3 km/h (3 Bft) 93,62 %
08.04.2021 19:04 8,4 C 7,8 C 5,0 C 56 % 1021,7 hPa 0,0 l/m 0 min 0 min 59 W/m 12,9 km/h (3 Bft) 95,74 %
08.04.2021 19:06 8,3 C 7,8 C 5,0 C 56 % 1021,7 hPa 0,0 l/m 0 min 0 min 57 W/m 16,1 km/h (3 Bft) 95,83 %
08.04.2021 19:08 8,3 C 7,8 C 5,0 C 56 % 1021,6 hPa 0,0 l/m 0 min 0 min 55 W/m 22,5 km/h (4 Bft) 93,62 %
08.04.2021 19:10 8,3 C 7,8 C 5,0 C 56 % 1021,7 hPa 0,0 l/m 0 min 0 min 51 W/m 19,3 km/h (3 Bft) 93,48 %
08.04.2021 19:12 8,2 C 7,8 C 5,0 C 56 % 1021,7 hPa 0,0 l/m 0 min 0 min 54 W/m 16,1 km/h (3 Bft) 95,74 %
08.04.2021 19:14 8,1 C 7,8 C 5,0 C 56 % 1021,7 hPa 0,0 l/m 0 min 0 min 55 W/m 19,3 km/h (3 Bft) 94,12 %
08.04.2021 19:16 8,1 C 7,8 C 5,0 C 57 % 1021,7 hPa 0,0 l/m 0 min 0 min 53 W/m 9,7 km/h (2 Bft) 97,83 %
08.04.2021 19:18 8,0 C 7,8 C 5,0 C 57 % 1021,7 hPa 0,0 l/m 0 min 0 min 56 W/m 16,1 km/h (3 Bft) 97,87 %
08.04.2021 19:20 8,0 C 7,8 C 5,0 C 58 % 1021,6 hPa 0,0 l/m 0 min 0 min 62 W/m 16,1 km/h (3 Bft) 95,65 %
08.04.2021 19:22 8,0 C 7,8 C 5,0 C 57 % 1021,6 hPa 0,0 l/m 0 min 0 min 66 W/m 12,9 km/h (3 Bft) 95,74 %
08.04.2021 19:24 8,0 C 7,8 C 5,0 C 58 % 1021,6 hPa 0,0 l/m 2 min 0 min 71 W/m 9,7 km/h (2 Bft) 95,74 %
08.04.2021 19:26 8,0 C 7,8 C 5,0 C 58 % 1021,5 hPa 0,0 l/m 2 min 0 min 70 W/m 12,9 km/h (3 Bft) 93,62 %
08.04.2021 19:28 7,9 C 7,8 C 5,0 C 59 % 1021,5 hPa 0,0 l/m 2 min 0 min 64 W/m 6,4 km/h (2 Bft) 91,49 %
08.04.2021 19:30 7,9 C 7,8 C 5,0 C 58 % 1021,5 hPa 0,0 l/m 0 min 0 min 57 W/m 12,9 km/h (3 Bft) 93,62 %
08.04.2021 19:32 7,9 C 7,2 C 5,0 C 57 % 1021,5 hPa 0,0 l/m 0 min 0 min 52 W/m 22,5 km/h (4 Bft) 95,65 %
08.04.2021 19:34 7,9 C 7,2 C 4,5 C 57 % 1021,5 hPa 0,0 l/m 0 min 0 min 48 W/m 19,3 km/h (3 Bft) 93,62 %
08.04.2021 19:36 7,9 C 7,2 C 4,5 C 57 % 1021,5 hPa 0,0 l/m 0 min 0 min 45 W/m 22,5 km/h (4 Bft) 95,74 %
08.04.2021 19:38 7,9 C 7,2 C 4,5 C 57 % 1021,5 hPa 0,0 l/m 0 min 0 min 42 W/m 22,5 km/h (4 Bft) 95,74 %
08.04.2021 19:40 7,8 C 7,2 C 4,5 C 57 % 1021,5 hPa 0,0 l/m 0 min 0 min 39 W/m 19,3 km/h (3 Bft) 95,74 %
08.04.2021 19:42 7,8 C 7,2 C 4,5 C 57 % 1021,4 hPa 0,0 l/m 0 min 0 min 36 W/m 19,3 km/h (3 Bft) 93,62 %
08.04.2021 19:44 7,8 C 7,2 C 4,5 C 57 % 1021,5 hPa 0,0 l/m 0 min 0 min 33 W/m 12,9 km/h (3 Bft) 95,65 %
08.04.2021 19:46 7,8 C 7,2 C 4,5 C 57 % 1021,5 hPa 0,0 l/m 0 min 0 min 31 W/m 12,9 km/h (3 Bft) 93,62 %
08.04.2021 19:48 7,7 C 7,2 C 4,5 C 57 % 1021,4 hPa 0,0 l/m 0 min 0 min 28 W/m 16,1 km/h (3 Bft) 97,87 %
08.04.2021 19:50 7,7 C 7,2 C 4,5 C 58 % 1021,4 hPa 0,0 l/m 0 min 0 min 26 W/m 12,9 km/h (3 Bft) 97,87 %
08.04.2021 19:52 7,6 C 7,2 C 4,5 C 58 % 1021,4 hPa 0,0 l/m 0 min 0 min 23 W/m 6,4 km/h (2 Bft) 95,74 %
08.04.2021 19:54 7,6 C 7,2 C 4,5 C 58 % 1021,4 hPa 0,0 l/m 0 min 0 min 20 W/m 6,4 km/h (2 Bft) 97,87 %
08.04.2021 19:56 7,6 C 6,7 C 4,5 C 58 % 1021,3 hPa 0,0 l/m 0 min 0 min 19 W/m 6,4 km/h (2 Bft) 97,83 %
08.04.2021 19:58 7,6 C 6,7 C 4,5 C 59 % 1021,3 hPa 0,0 l/m 0 min 0 min 17 W/m 6,4 km/h (2 Bft) 97,87 %
08.04.2021 20:00 7,5 C 6,7 C 4,5 C 58 % 1021,2 hPa 0,0 l/m 0 min 0 min 15 W/m 9,7 km/h (2 Bft) 95,74 %
08.04.2021 20:02 7,5 C 6,7 C 3,9 C 59 % 1021,2 hPa 0,0 l/m 0 min 0 min 14 W/m 6,4 km/h (2 Bft) 95,74 %
08.04.2021 20:04 7,5 C 6,7 C 3,9 C 59 % 1021,1 hPa 0,0 l/m 0 min 0 min 12 W/m 6,4 km/h (2 Bft) 97,87 %
08.04.2021 20:06 7,5 C 6,7 C 3,9 C 60 % 1021,1 hPa 0,0 l/m 0 min 0 min 11 W/m 0,0 km/h (0 Bft) 97,87 %
08.04.2021 20:08 7,4 C 6,7 C 3,9 C 60 % 1021,2 hPa 0,0 l/m 0 min 0 min 9 W/m 3,2 km/h (1 Bft) 98,08 %
08.04.2021 20:10 7,4 C 6,7 C 3,9 C 60 % 1021,1 hPa 0,0 l/m 0 min 0 min 7 W/m 3,2 km/h (1 Bft) 97,87 %
08.04.2021 20:12 7,4 C 6,7 C 3,9 C 59 % 1021,1 hPa 0,0 l/m 0 min 0 min 5 W/m 12,9 km/h (3 Bft) 97,87 %
08.04.2021 20:14 7,3 C 6,1 C 3,9 C 59 % 1021,1 hPa 0,0 l/m 0 min 0 min 5 W/m 6,4 km/h (2 Bft) 93,62 %
08.04.2021 20:16 7,3 C 6,1 C 3,9 C 60 % 1021,0 hPa 0,0 l/m 0 min 0 min 0 W/m 3,2 km/h (1 Bft) 95,74 %
08.04.2021 20:18 7,3 C 6,1 C 3,9 C 60 % 1021,0 hPa 0,0 l/m 0 min 0 min 0 W/m 3,2 km/h (1 Bft) 97,87 %
08.04.2021 20:20 7,3 C 6,1 C 3,9 C 60 % 1021,1 hPa 0,0 l/m 0 min 0 min 0 W/m 3,2 km/h (1 Bft) 97,83 %
08.04.2021 20:22 7,2 C 6,1 C 3,9 C 61 % 1021,1 hPa 0,0 l/m 0 min 0 min 0 W/m 6,4 km/h (2 Bft) 100,00 %
08.04.2021 20:24 7,2 C 6,1 C 3,4 C 61 % 1021,1 hPa 0,0 l/m 0 min 0 min 0 W/m 3,2 km/h (1 Bft) 97,87 %
08.04.2021 20:26 7,1 C 6,1 C 3,4 C 61 % 1021,1 hPa 0,0 l/m 0 min 0 min 0 W/m 6,4 km/h (2 Bft) 95,74 %
08.04.2021 20:28 7,1 C 6,1 C 3,4 C 61 % 1021,0 hPa 0,0 l/m 0 min 0 min 0 W/m 3,2 km/h (1 Bft) 97,87 %
08.04.2021 20:30 7,0 C 6,1 C 3,4 C 61 % 1021,0 hPa 0,0 l/m 0 min 0 min 0 W/m 6,4 km/h (2 Bft) 100,00 %
08.04.2021 20:32 7,0 C 6,1 C 3,4 C 61 % 1021,0 hPa 0,0 l/m 0 min 0 min 0 W/m 3,2 km/h (1 Bft) 100,00 %
08.04.2021 20:34 7,0 C 5,6 C 3,4 C 62 % 1020,9 hPa 0,0 l/m 0 min 0 min 0 W/m 3,2 km/h (1 Bft) 100,00 %
08.04.2021 20:36 6,9 C 5,6 C 3,4 C 62 % 1020,9 hPa 0,0 l/m 0 min 0 min 0 W/m 3,2 km/h (1 Bft) 100,00 %
08.04.2021 20:38 6,9 C 5,6 C 3,4 C 62 % 1020,9 hPa 0,0 l/m 0 min 0 min 0 W/m 6,4 km/h (2 Bft) 97,87 %
08.04.2021 20:40 6,9 C 5,6 C 3,4 C 62 % 1020,9 hPa 0,0 l/m 0 min 0 min 0 W/m 3,2 km/h (1 Bft) 100,00 %
08.04.2021 20:42 6,8 C 5,6 C 3,4 C 62 % 1020,9 hPa 0,0 l/m 0 min 0 min 0 W/m 3,2 km/h (1 Bft) 100,00 %
08.04.2021 20:44 6,8 C 5,6 C 3,4 C 62 % 1020,9 hPa 0,0 l/m 0 min 0 min 0 W/m 6,4 km/h (2 Bft) 100,00 %
08.04.2021 20:46 6,7 C 5,6 C 3,4 C 62 % 1020,9 hPa 0,0 l/m 0 min 0 min 0 W/m 3,2 km/h (1 Bft) 100,00 %
08.04.2021 20:48 6,7 C 5,6 C 3,4 C 62 % 1020,9 hPa 0,0 l/m 0 min 0 min 0 W/m 0,0 km/h (0 Bft) 100,00 %
08.04.2021 20:50 6,6 C 5,6 C 3,4 C 63 % 1020,9 hPa 0,0 l/m 0 min 0 min 0 W/m 3,2 km/h (1 Bft) 100,00 %
08.04.2021 20:52 6,6 C 5,6 C 2,8 C 63 % 1020,8 hPa 0,0 l/m 0 min 0 min 0 W/m 3,2 km/h (1 Bft) 100,00 %
08.04.2021 20:54 6,6 C 5,6 C 2,8 C 63 % 1020,9 hPa 0,0 l/m 0 min 0 min 0 W/m 3,2 km/h (1 Bft) 100,00 %
08.04.2021 20:56 6,5 C 5,6 C 2,8 C 63 % 1020,8 hPa 0,0 l/m 0 min 0 min 0 W/m 3,2 km/h (1 Bft) 97,87 %
08.04.2021 20:58 6,5 C 5,6 C 2,8 C 63 % 1020,9 hPa 0,0 l/m 0 min 0 min 0 W/m 3,2 km/h (1 Bft) 100,00 %
08.04.2021 21:00 6,5 C 5,6 C 2,8 C 64 % 1020,8 hPa 0,0 l/m 0 min 0 min 0 W/m 3,2 km/h (1 Bft) 100,00 %
08.04.2021 21:02 6,4 C 5,6 C 2,8 C 64 % 1020,8 hPa 0,0 l/m 0 min 0 min 0 W/m 3,2 km/h (1 Bft) 97,87 %
08.04.2021 21:04 6,4 C 5,0 C 2,8 C 64 % 1020,8 hPa 0,0 l/m 0 min 0 min 0 W/m 6,4 km/h (2 Bft) 100,00 %
08.04.2021 21:06 6,4 C 5,0 C 2,8 C 64 % 1020,8 hPa 0,0 l/m 0 min 0 min 0 W/m 3,2 km/h (1 Bft) 100,00 %
08.04.2021 21:08 6,4 C 5,0 C 2,8 C 64 % 1020,8 hPa 0,0 l/m 0 min 0 min 0 W/m 3,2 km/h (1 Bft) 100,00 %
08.04.2021 21:10 6,4 C 5,0 C 2,8 C 65 % 1020,8 hPa 0,0 l/m 0 min 0 min 0 W/m 6,4 km/h (2 Bft) 97,87 %
08.04.2021 21:12 6,3 C 5,0 C 2,8 C 65 % 1020,8 hPa 0,0 l/m 0 min 0 min 0 W/m 3,2 km/h (1 Bft) 95,74 %
08.04.2021 21:14 6,3 C 5,0 C 2,8 C 65 % 1020,7 hPa 0,0 l/m 0 min 0 min 0 W/m 3,2 km/h (1 Bft) 95,74 %
08.04.2021 21:16 6,3 C 5,0 C 2,8 C 65 % 1020,7 hPa 0,0 l/m 0 min 0 min 0 W/m 3,2 km/h (1 Bft) 97,87 %
08.04.2021 21:18 6,2 C 5,0 C 2,8 C 65 % 1020,8 hPa 0,0 l/m 0 min 0 min 0 W/m 6,4 km/h (2 Bft) 97,83 %
08.04.2021 21:20 6,2 C 5,0 C 2,8 C 65 % 1020,8 hPa 0,0 l/m 0 min 0 min 0 W/m 0,0 km/h (0 Bft) 97,87 %
08.04.2021 21:22 6,1 C 5,0 C 2,3 C 66 % 1020,8 hPa 0,0 l/m 0 min 0 min 0 W/m 0,0 km/h (0 Bft) 97,87 %
08.04.2021 21:24 6,1 C 5,0 C 2,3 C 66 % 1020,8 hPa 0,0 l/m 0 min 0 min 0 W/m 0,0 km/h (0 Bft) 97,87 %
08.04.2021 21:26 6,1 C 4,4 C 2,3 C 67 % 1020,8 hPa 0,0 l/m 0 min 0 min 0 W/m 0,0 km/h (0 Bft) 97,87 %
08.04.2021 21:28 6,1 C 4,4 C 2,3 C 67 % 1020,8 hPa 0,0 l/m 0 min 0 min 0 W/m 0,0 km/h (0 Bft) 97,87 %
08.04.2021 21:30 6,0 C 4,4 C 2,3 C 67 % 1020,7 hPa 0,0 l/m 0 min 0 min 0 W/m 0,0 km/h (0 Bft) 97,83 %
08.04.2021 21:32 6,0 C 4,4 C 1,7 C 67 % 1020,8 hPa 0,0 l/m 0 min 0 min 0 W/m 0,0 km/h (0 Bft) 97,87 %
08.04.2021 21:34 5,9 C 4,4 C 1,7 C 67 % 1020,7 hPa 0,0 l/m 0 min 0 min 0 W/m 3,2 km/h (1 Bft) 95,74 %
08.04.2021 21:36 5,9 C 4,4 C 1,7 C 67 % 1020,7 hPa 0,0 l/m 0 min 0 min 0 W/m 3,2 km/h (1 Bft) 97,87 %
08.04.2021 21:38 5,8 C 4,4 C 2,3 C 67 % 1020,7 hPa 0,0 l/m 0 min 0 min 0 W/m 3,2 km/h (1 Bft) 97,87 %
08.04.2021 21:40 5,8 C 4,4 C 2,3 C 67 % 1020,7 hPa 0,0 l/m 0 min 0 min 0 W/m 6,4 km/h (2 Bft) 97,87 %
08.04.2021 21:42 5,8 C 4,4 C 2,3 C 67 % 1020,7 hPa 0,0 l/m 0 min 0 min 0 W/m 3,2 km/h (1 Bft) 100,00 %
08.04.2021 21:44 5,7 C 4,4 C 2,3 C 67 % 1020,7 hPa 0,0 l/m 0 min 0 min 0 W/m 0,0 km/h (0 Bft) 100,00 %
08.04.2021 21:46 5,7 C 4,4 C 2,3 C 67 % 1020,7 hPa 0,0 l/m 0 min 0 min 0 W/m 3,2 km/h (1 Bft) 100,00 %
08.04.2021 21:48 5,7 C 4,4 C 2,3 C 67 % 1020,7 hPa 0,0 l/m 0 min 0 min 0 W/m 3,2 km/h (1 Bft) 100,00 %
08.04.2021 21:50 5,6 C 4,4 C 2,3 C 67 % 1020,6 hPa 0,0 l/m 0 min 0 min 0 W/m 3,2 km/h (1 Bft) 100,00 %
08.04.2021 21:52 5,6 C 4,4 C 2,3 C 67 % 1020,6 hPa 0,0 l/m 0 min 0 min 0 W/m 3,2 km/h (1 Bft) 100,00 %
08.04.2021 21:54 5,6 C 4,4 C 2,3 C 67 % 1020,6 hPa 0,0 l/m 0 min 0 min 0 W/m 3,2 km/h (1 Bft) 100,00 %
08.04.2021 21:56 5,6 C 4,4 C 2,3 C 68 % 1020,5 hPa 0,0 l/m 0 min 0 min 0 W/m 3,2 km/h (1 Bft) 100,00 %
08.04.2021 21:58 5,6 C 4,4 C 2,3 C 68 % 1020,6 hPa 0,0 l/m 0 min 0 min 0 W/m 3,2 km/h (1 Bft) 97,87 %
08.04.2021 22:00 5,5 C 4,4 C 2,3 C 68 % 1020,6 hPa 0,0 l/m 0 min 0 min 0 W/m 0,0 km/h (0 Bft) 100,00 %
08.04.2021 22:02 5,5 C 4,4 C 2,3 C 68 % 1020,6 hPa 0,0 l/m 0 min 0 min 0 W/m 3,2 km/h (1 Bft) 97,87 %
08.04.2021 22:04 5,5 C 4,4 C 2,3 C 69 % 1020,6 hPa 0,0 l/m 0 min 0 min 0 W/m 3,2 km/h (1 Bft) 100,00 %
08.04.2021 22:06 5,5 C 4,4 C 2,3 C 69 % 1020,6 hPa 0,0 l/m 0 min 0 min 0 W/m 3,2 km/h (1 Bft) 100,00 %
08.04.2021 22:08 5,5 C 4,4 C 2,3 C 68 % 1020,5 hPa 0,0 l/m 0 min 0 min 0 W/m 3,2 km/h (1 Bft) 97,87 %
08.04.2021 22:10 5,4 C 4,4 C 2,3 C 69 % 1020,5 hPa 0,0 l/m 0 min 0 min 0 W/m 0,0 km/h (0 Bft) 100,00 %
08.04.2021 22:12 5,4 C 4,4 C 2,3 C 69 % 1020,5 hPa 0,0 l/m 0 min 0 min 0 W/m 3,2 km/h (1 Bft) 100,00 %
08.04.2021 22:14 5,4 C 4,4 C 1,7 C 69 % 1020,5 hPa 0,0 l/m 0 min 0 min 0 W/m 0,0 km/h (0 Bft) 97,87 %
08.04.2021 22:16 5,4 C 4,4 C 1,7 C 69 % 1020,5 hPa 0,0 l/m 0 min 0 min 0 W/m 6,4 km/h (2 Bft) 100,00 %
08.04.2021 22:18 5,3 C 4,4 C 1,7 C 69 % 1020,4 hPa 0,0 l/m 0 min 0 min 0 W/m 3,2 km/h (1 Bft) 100,00 %
08.04.2021 22:20 5,3 C 4,4 C 1,7 C 69 % 1020,5 hPa 0,0 l/m 0 min 0 min 0 W/m 0,0 km/h (0 Bft) 100,00 %
08.04.2021 22:22 5,3 C 4,4 C 1,7 C 69 % 1020,4 hPa 0,0 l/m 0 min 0 min 0 W/m 3,2 km/h (1 Bft) 100,00 %
08.04.2021 22:24 5,3 C 4,4 C 1,7 C 69 % 1020,4 hPa 0,0 l/m 0 min 0 min 0 W/m 3,2 km/h (1 Bft) 100,00 %
08.04.2021 22:26 5,2 C 4,4 C 1,7 C 70 % 1020,5 hPa 0,0 l/m 0 min 0 min 0 W/m 3,2 km/h (1 Bft) 100,00 %
08.04.2021 22:28 5,2 C 4,4 C 1,7 C 70 % 1020,5 hPa 0,0 l/m 0 min 0 min 0 W/m 0,0 km/h (0 Bft) 100,00 %
08.04.2021 22:30 5,1 C 3,9 C 1,7 C 70 % 1020,4 hPa 0,0 l/m 0 min 0 min 0 W/m 6,4 km/h (2 Bft) 100,00 %
08.04.2021 22:32 5,1 C 3,9 C 1,7 C 70 % 1020,4 hPa 0,0 l/m 0 min 0 min 0 W/m 3,2 km/h (1 Bft) 95,74 %
08.04.2021 22:34 5,1 C 3,9 C 1,7 C 70 % 1020,4 hPa 0,0 l/m 0 min 0 min 0 W/m 6,4 km/h (2 Bft) 100,00 %
08.04.2021 22:36 5,1 C 3,9 C 1,7 C 70 % 1020,4 hPa 0,0 l/m 0 min 0 min 0 W/m 6,4 km/h (2 Bft) 80,85 %
08.04.2021 22:38 5,0 C 3,9 C 1,7 C 70 % 1020,3 hPa 0,0 l/m 0 min 0 min 0 W/m 3,2 km/h (1 Bft) 72,50 %
08.04.2021 22:40 5,0 C 3,9 C 1,7 C 70 % 1020,3 hPa 0,0 l/m 0 min 0 min 0 W/m 3,2 km/h (1 Bft) 97,83 %
08.04.2021 22:42 5,0 C 3,9 C 1,7 C 70 % 1020,3 hPa 0,0 l/m 0 min 0 min 0 W/m 3,2 km/h (1 Bft) 100,00 %
08.04.2021 22:44 5,0 C 3,9 C 1,7 C 70 % 1020,3 hPa 0,0 l/m 0 min 0 min 0 W/m 3,2 km/h (1 Bft) 100,00 %
08.04.2021 22:46 5,0 C 3,9 C 1,7 C 71 % 1020,4 hPa 0,0 l/m 0 min 0 min 0 W/m 6,4 km/h (2 Bft) 100,00 %
08.04.2021 22:48 4,9 C 3,9 C 1,7 C 71 % 1020,3 hPa 0,0 l/m 0 min 0 min 0 W/m 3,2 km/h (1 Bft) 100,00 %
08.04.2021 22:50 4,9 C 3,9 C 1,7 C 71 % 1020,3 hPa 0,0 l/m 0 min 0 min 0 W/m 3,2 km/h (1 Bft) 100,00 %
08.04.2021 22:52 4,9 C 3,9 C 1,7 C 71 % 1020,3 hPa 0,0 l/m 0 min 0 min 0 W/m 3,2 km/h (1 Bft) 97,83 %
08.04.2021 22:54 4,8 C 3,9 C 1,7 C 72 % 1020,2 hPa 0,0 l/m 0 min 0 min 0 W/m 6,4 km/h (2 Bft) 100,00 %
08.04.2021 22:56 4,8 C 3,9 C 1,7 C 72 % 1020,2 hPa 0,0 l/m 0 min 0 min 0 W/m 3,2 km/h (1 Bft) 97,87 %
08.04.2021 22:58 4,8 C 3,9 C 1,7 C 72 % 1020,2 hPa 0,0 l/m 0 min 0 min 0 W/m 3,2 km/h (1 Bft) 100,00 %
08.04.2021 23:00 4,7 C 3,9 C 1,7 C 72 % 1020,1 hPa 0,0 l/m 0 min 0 min 0 W/m 3,2 km/h (1 Bft) 97,87 %
08.04.2021 23:02 4,7 C 3,3 C 1,7 C 72 % 1020,1 hPa 0,0 l/m 0 min 0 min 0 W/m 3,2 km/h (1 Bft) 97,87 %
08.04.2021 23:04 4,6 C 3,3 C 1,1 C 72 % 1020,1 hPa 0,0 l/m 0 min 0 min 0 W/m 6,4 km/h (2 Bft) 95,65 %
08.04.2021 23:06 4,6 C 3,3 C 1,1 C 73 % 1020,1 hPa 0,0 l/m 0 min 0 min 0 W/m 6,4 km/h (2 Bft) 95,74 %
08.04.2021 23:08 4,6 C 3,3 C 1,1 C 73 % 1020,0 hPa 0,0 l/m 0 min 0 min 0 W/m 6,4 km/h (2 Bft) 94,34 %
08.04.2021 23:10 4,5 C 3,3 C 1,1 C 73 % 1020,0 hPa 0,0 l/m 0 min 0 min 0 W/m 3,2 km/h (1 Bft) 95,74 %
08.04.2021 23:12 4,5 C 3,3 C 1,1 C 73 % 1020,0 hPa 0,0 l/m 0 min 0 min 0 W/m 3,2 km/h (1 Bft) 95,74 %
08.04.2021 23:14 4,5 C 3,3 C 1,1 C 73 % 1020,0 hPa 0,0 l/m 0 min 0 min 0 W/m 3,2 km/h (1 Bft) 95,74 %
08.04.2021 23:16 4,5 C 3,3 C 1,1 C 73 % 1020,0 hPa 0,0 l/m 0 min 0 min 0 W/m 6,4 km/h (2 Bft) 95,65 %
08.04.2021 23:18 4,4 C 3,3 C 1,1 C 73 % 1019,9 hPa 0,0 l/m 0 min 0 min 0 W/m 3,2 km/h (1 Bft) 95,83 %
08.04.2021 23:20 4,4 C 3,3 C 1,1 C 74 % 1019,8 hPa 0,0 l/m 0 min 0 min 0 W/m 3,2 km/h (1 Bft) 94,87 %
08.04.2021 23:22 4,4 C 3,3 C 1,1 C 74 % 1019,9 hPa 0,0 l/m 0 min 0 min 0 W/m 6,4 km/h (2 Bft) 94,44 %
08.04.2021 23:24 4,3 C 3,3 C 1,1 C 74 % 1019,8 hPa 0,0 l/m 0 min 0 min 0 W/m 6,4 km/h (2 Bft) 93,62 %
08.04.2021 23:26 4,3 C 3,3 C 1,1 C 74 % 1019,8 hPa 0,0 l/m 0 min 0 min 0 W/m 6,4 km/h (2 Bft) 93,62 %
08.04.2021 23:28 4,3 C 3,3 C 1,1 C 74 % 1019,8 hPa 0,0 l/m 0 min 0 min 0 W/m 3,2 km/h (1 Bft) 97,83 %
08.04.2021 23:30 4,3 C 3,3 C 1,1 C 74 % 1019,8 hPa 0,0 l/m 0 min 0 min 0 W/m 3,2 km/h (1 Bft) 93,62 %
08.04.2021 23:32 4,3 C 3,3 C 1,1 C 74 % 1019,7 hPa 0,0 l/m 0 min 0 min 0 W/m 3,2 km/h (1 Bft) 95,83 %
08.04.2021 23:34 4,2 C 3,3 C 1,1 C 74 % 1019,6 hPa 0,0 l/m 0 min 0 min 0 W/m 6,4 km/h (2 Bft) 54,55 %
08.04.2021 23:36 4,2 C 3,3 C 1,1 C 74 % 1019,7 hPa 0,0 l/m 0 min 0 min 0 W/m 3,2 km/h (1 Bft) 97,87 %
08.04.2021 23:38 4,2 C 3,3 C 1,1 C 74 % 1019,7 hPa 0,0 l/m 0 min 0 min 0 W/m 3,2 km/h (1 Bft) 95,74 %
08.04.2021 23:40 4,1 C 3,3 C 1,1 C 74 % 1019,6 hPa 0,0 l/m 0 min 0 min 0 W/m 3,2 km/h (1 Bft) 95,65 %
08.04.2021 23:42 4,1 C 3,3 C 1,1 C 74 % 1019,6 hPa 0,0 l/m 0 min 0 min 0 W/m 6,4 km/h (2 Bft) 95,74 %
08.04.2021 23:44 4,1 C 3,3 C 1,1 C 74 % 1019,6 hPa 0,0 l/m 0 min 0 min 0 W/m 3,2 km/h (1 Bft) 95,74 %
08.04.2021 23:46 4,1 C 3,3 C 1,1 C 74 % 1019,7 hPa 0,0 l/m 0 min 0 min 0 W/m 3,2 km/h (1 Bft) 93,62 %
08.04.2021 23:48 4,1 C 3,3 C 1,1 C 74 % 1019,6 hPa 0,0 l/m 0 min 0 min 0 W/m 6,4 km/h (2 Bft) 95,74 %
08.04.2021 23:50 4,0 C 3,3 C 1,1 C 74 % 1019,6 hPa 0,0 l/m 0 min 0 min 0 W/m 6,4 km/h (2 Bft) 95,74 %
08.04.2021 23:52 4,0 C 3,3 C 1,1 C 74 % 1019,6 hPa 0,0 l/m 0 min 0 min 0 W/m 3,2 km/h (1 Bft) 95,65 %
08.04.2021 23:54 4,0 C 3,3 C 1,1 C 74 % 1019,5 hPa 0,0 l/m 0 min 0 min 0 W/m 6,4 km/h (2 Bft) 95,74 %
08.04.2021 23:56 4,0 C 3,3 C 1,1 C 74 % 1019,6 hPa 0,0 l/m 0 min 0 min 0 W/m 6,4 km/h (2 Bft) 93,62 %
08.04.2021 23:58 4,0 C 3,3 C 1,1 C 75 % 1019,6 hPa 0,0 l/m 0 min 0 min 0 W/m 3,2 km/h (1 Bft) 93,62 %
_ Min-Zeit 03:02 00:40 00:40 15:48 23:54 - - - - 05:54 06:02
Minimum _ 1,1 C 0,6 C 0,0 C 51 % 1019,5 hPa - - - - 0,0 km/h (0 Bft) 33,33 %
_ Max-Zeit 16:58 16:08 13:00 03:24 10:26 00:00 18:08 00:00 13:00 16:36 00:00
Maximum _ 9,6 C 15,6 C 10,0 C 94 % 1025,3 hPa 0,0 l/m 4 min 0 min 989 W/m 41,8 km/h
S (6 Bft)
100,00 %
Durchschnitt _ 4,8 C 5,3 C 3,3 C 74 % 1023,2 hPa #0,0 l/m #6:58 h #0 min. 287 W/m 10,4 km/h (2 Bft) 97,11 %
© 2021 W. Hausmann